Wetterdaten: Samstag, 15.01.2022
Datum Zeit Temp. Aussen Temp. o. S. Temp +5cm Feuchte Auss Luftdruck Regen Sonnenschein Regendauer Solar Windben Empfang
15.01.2022 00:00 2,7 C 2,2 C 2,8 C 100 % 1033,9 hPa 0,0 l/m 0 min 0 min 0 W/m 3,2 km/h (1 Bft) 97,92 %
15.01.2022 00:02 2,7 C 2,2 C 2,8 C 100 % 1033,9 hPa 0,0 l/m 0 min 0 min 0 W/m 3,2 km/h (1 Bft) 95,74 %
15.01.2022 00:04 2,7 C 2,2 C 2,8 C 100 % 1033,9 hPa 0,0 l/m 0 min 0 min 0 W/m 3,2 km/h (1 Bft) 100,00 %
15.01.2022 00:08 2,7 C 2,2 C 2,8 C 100 % 1033,8 hPa 0,0 l/m 0 min 0 min 0 W/m 6,4 km/h (2 Bft) 97,87 %
15.01.2022 00:10 2,7 C 2,2 C 2,8 C 100 % 1033,8 hPa 0,0 l/m 0 min 0 min 0 W/m 0,0 km/h (0 Bft) 97,83 %
15.01.2022 00:12 2,7 C 2,2 C 2,8 C 100 % 1033,8 hPa 0,0 l/m 0 min 0 min 0 W/m 3,2 km/h (1 Bft) 97,87 %
15.01.2022 00:14 2,7 C 2,2 C 2,8 C 100 % 1033,8 hPa 0,0 l/m 0 min 0 min 0 W/m 6,4 km/h (2 Bft) 97,87 %
15.01.2022 00:16 2,7 C 2,2 C 2,8 C 100 % 1033,8 hPa 0,0 l/m 0 min 0 min 0 W/m 6,4 km/h (2 Bft) 97,87 %
15.01.2022 00:18 2,6 C 2,2 C 2,8 C 100 % 1033,8 hPa 0,0 l/m 0 min 0 min 0 W/m 12,9 km/h (3 Bft) 97,87 %
15.01.2022 00:20 2,6 C 2,2 C 2,8 C 100 % 1033,8 hPa 0,0 l/m 0 min 0 min 0 W/m 6,4 km/h (2 Bft) 97,87 %
15.01.2022 00:22 2,6 C 2,2 C 2,8 C 100 % 1033,8 hPa 0,0 l/m 0 min 0 min 0 W/m 9,7 km/h (2 Bft) 95,65 %
15.01.2022 00:24 2,6 C 2,2 C 2,8 C 100 % 1033,7 hPa 0,0 l/m 0 min 0 min 0 W/m 6,4 km/h (2 Bft) 93,62 %
15.01.2022 00:26 2,6 C 2,2 C 2,8 C 100 % 1033,7 hPa 0,0 l/m 0 min 0 min 0 W/m 3,2 km/h (1 Bft) 97,87 %
15.01.2022 00:28 2,5 C 2,2 C 2,8 C 100 % 1033,7 hPa 0,0 l/m 0 min 0 min 0 W/m 16,1 km/h (3 Bft) 95,74 %
15.01.2022 00:30 2,5 C 2,2 C 2,8 C 100 % 1033,6 hPa 0,0 l/m 0 min 0 min 0 W/m 12,9 km/h (3 Bft) 97,87 %
15.01.2022 00:32 2,5 C 2,2 C 2,2 C 100 % 1033,6 hPa 0,0 l/m 0 min 0 min 0 W/m 6,4 km/h (2 Bft) 97,87 %
15.01.2022 00:34 2,5 C 2,2 C 2,2 C 100 % 1033,6 hPa 0,0 l/m 0 min 0 min 0 W/m 3,2 km/h (1 Bft) 97,83 %
15.01.2022 00:36 2,4 C 2,2 C 2,2 C 100 % 1033,6 hPa 0,0 l/m 0 min 0 min 0 W/m 0,0 km/h (0 Bft) 95,74 %
15.01.2022 00:38 2,4 C 2,2 C 2,2 C 100 % 1033,6 hPa 0,0 l/m 0 min 0 min 0 W/m 6,4 km/h (2 Bft) 97,14 %
15.01.2022 00:40 2,4 C 2,2 C 2,2 C 100 % 1033,6 hPa 0,0 l/m 0 min 0 min 0 W/m 12,9 km/h (3 Bft) 98,28 %
15.01.2022 00:42 2,4 C 2,2 C 2,2 C 100 % 1033,6 hPa 0,0 l/m 0 min 0 min 0 W/m 12,9 km/h (3 Bft) 97,87 %
15.01.2022 00:44 2,4 C 2,2 C 2,2 C 100 % 1033,6 hPa 0,0 l/m 0 min 0 min 0 W/m 6,4 km/h (2 Bft) 97,87 %
15.01.2022 00:46 2,4 C 2,2 C 2,2 C 100 % 1033,6 hPa 0,0 l/m 0 min 0 min 0 W/m 6,4 km/h (2 Bft) 93,62 %
15.01.2022 00:48 2,4 C 2,2 C 2,2 C 100 % 1033,6 hPa 0,0 l/m 0 min 0 min 0 W/m 3,2 km/h (1 Bft) 95,65 %
15.01.2022 00:50 2,4 C 2,2 C 2,2 C 100 % 1033,7 hPa 0,0 l/m 0 min 0 min 0 W/m 3,2 km/h (1 Bft) 97,87 %
15.01.2022 00:52 2,4 C 2,2 C 2,2 C 100 % 1033,6 hPa 0,0 l/m 0 min 0 min 0 W/m 6,4 km/h (2 Bft) 97,22 %
15.01.2022 00:54 2,4 C 2,2 C 2,2 C 100 % 1033,6 hPa 0,0 l/m 0 min 0 min 0 W/m 6,4 km/h (2 Bft) 97,87 %
15.01.2022 00:56 2,4 C 2,2 C 2,2 C 100 % 1033,7 hPa 0,0 l/m 0 min 0 min 0 W/m 3,2 km/h (1 Bft) 97,87 %
15.01.2022 00:58 2,4 C 2,2 C 2,2 C 100 % 1033,6 hPa 0,0 l/m 0 min 0 min 0 W/m 16,1 km/h (3 Bft) 97,87 %
15.01.2022 01:00 2,4 C 2,2 C 2,2 C 100 % 1033,6 hPa 0,0 l/m 0 min 0 min 0 W/m 12,9 km/h (3 Bft) 97,83 %
15.01.2022 01:02 2,4 C 2,2 C 2,2 C 100 % 1033,6 hPa 0,0 l/m 0 min 0 min 0 W/m 6,4 km/h (2 Bft) 98,11 %
15.01.2022 01:04 2,4 C 2,2 C 2,2 C 100 % 1033,5 hPa 0,0 l/m 0 min 0 min 0 W/m 3,2 km/h (1 Bft) 97,87 %
15.01.2022 01:06 2,4 C 2,2 C 2,2 C 100 % 1033,6 hPa 0,0 l/m 0 min 0 min 0 W/m 6,4 km/h (2 Bft) 95,74 %
15.01.2022 01:08 2,4 C 2,2 C 2,2 C 100 % 1033,6 hPa 0,0 l/m 0 min 0 min 0 W/m 12,9 km/h (3 Bft) 97,87 %
15.01.2022 01:10 2,4 C 2,2 C 2,2 C 100 % 1033,6 hPa 0,0 l/m 0 min 0 min 0 W/m 6,4 km/h (2 Bft) 95,74 %
15.01.2022 01:12 2,4 C 2,2 C 2,2 C 100 % 1033,6 hPa 0,0 l/m 0 min 0 min 0 W/m 12,9 km/h (3 Bft) 97,83 %
15.01.2022 01:14 2,3 C 1,7 C 2,2 C 100 % 1033,5 hPa 0,0 l/m 0 min 0 min 0 W/m 6,4 km/h (2 Bft) 100,00 %
15.01.2022 01:16 2,3 C 1,7 C 2,2 C 100 % 1033,5 hPa 0,0 l/m 0 min 0 min 0 W/m 6,4 km/h (2 Bft) 97,87 %
15.01.2022 01:18 2,3 C 1,7 C 2,2 C 100 % 1033,6 hPa 0,0 l/m 0 min 0 min 0 W/m 6,4 km/h (2 Bft) 100,00 %
15.01.2022 01:20 2,3 C 1,7 C 2,2 C 100 % 1033,5 hPa 0,0 l/m 0 min 0 min 0 W/m 6,4 km/h (2 Bft) 97,87 %
15.01.2022 01:22 2,3 C 1,7 C 2,2 C 100 % 1033,5 hPa 0,0 l/m 0 min 0 min 0 W/m 3,2 km/h (1 Bft) 97,83 %
15.01.2022 01:24 2,3 C 1,7 C 2,2 C 100 % 1033,5 hPa 0,0 l/m 0 min 0 min 0 W/m 3,2 km/h (1 Bft) 95,74 %
15.01.2022 01:26 2,3 C 2,2 C 2,2 C 100 % 1033,5 hPa 0,0 l/m 0 min 0 min 0 W/m 9,7 km/h (2 Bft) 97,87 %
15.01.2022 01:28 2,3 C 2,2 C 2,2 C 100 % 1033,5 hPa 0,0 l/m 0 min 0 min 0 W/m 9,7 km/h (2 Bft) 95,74 %
15.01.2022 01:30 2,3 C 1,7 C 2,2 C 100 % 1033,5 hPa 0,0 l/m 0 min 0 min 0 W/m 12,9 km/h (3 Bft) 97,87 %
15.01.2022 01:32 2,3 C 1,7 C 2,2 C 100 % 1033,5 hPa 0,0 l/m 0 min 0 min 0 W/m 6,4 km/h (2 Bft) 97,87 %
15.01.2022 01:34 2,3 C 1,7 C 2,2 C 100 % 1033,5 hPa 0,0 l/m 0 min 0 min 0 W/m 12,9 km/h (3 Bft) 95,65 %
15.01.2022 01:36 2,2 C 1,7 C 2,2 C 100 % 1033,6 hPa 0,0 l/m 0 min 0 min 0 W/m 12,9 km/h (3 Bft) 95,74 %
15.01.2022 01:38 2,2 C 1,7 C 2,2 C 100 % 1033,5 hPa 0,0 l/m 0 min 0 min 0 W/m 6,4 km/h (2 Bft) 97,87 %
15.01.2022 01:40 2,2 C 1,7 C 2,2 C 100 % 1033,5 hPa 0,0 l/m 0 min 0 min 0 W/m 6,4 km/h (2 Bft) 97,87 %
15.01.2022 01:42 2,2 C 1,7 C 2,2 C 100 % 1033,5 hPa 0,0 l/m 0 min 0 min 0 W/m 6,4 km/h (2 Bft) 97,87 %
15.01.2022 01:44 2,2 C 1,7 C 2,2 C 100 % 1033,5 hPa 0,0 l/m 0 min 0 min 0 W/m 9,7 km/h (2 Bft) 97,87 %
15.01.2022 01:46 2,2 C 1,7 C 2,2 C 100 % 1033,5 hPa 0,0 l/m 0 min 0 min 0 W/m 6,4 km/h (2 Bft) 93,48 %
15.01.2022 01:48 2,2 C 1,7 C 2,2 C 100 % 1033,5 hPa 0,0 l/m 0 min 0 min 0 W/m 6,4 km/h (2 Bft) 95,74 %
15.01.2022 01:50 2,2 C 1,7 C 2,2 C 100 % 1033,4 hPa 0,0 l/m 0 min 0 min 0 W/m 6,4 km/h (2 Bft) 95,74 %
15.01.2022 01:52 2,2 C 1,7 C 2,2 C 100 % 1033,4 hPa 0,0 l/m 0 min 0 min 0 W/m 6,4 km/h (2 Bft) 93,62 %
15.01.2022 01:54 2,2 C 1,7 C 2,2 C 100 % 1033,4 hPa 0,0 l/m 0 min 0 min 0 W/m 9,7 km/h (2 Bft) 95,74 %
15.01.2022 01:56 2,2 C 1,7 C 2,2 C 100 % 1033,4 hPa 0,0 l/m 0 min 0 min 0 W/m 6,4 km/h (2 Bft) 95,74 %
15.01.2022 01:58 2,2 C 1,7 C 2,2 C 100 % 1033,3 hPa 0,0 l/m 0 min 0 min 0 W/m 6,4 km/h (2 Bft) 93,48 %
15.01.2022 02:00 2,2 C 1,7 C 2,2 C 100 % 1033,2 hPa 0,0 l/m 0 min 0 min 0 W/m 12,9 km/h (3 Bft) 95,74 %
15.01.2022 02:02 2,2 C 1,7 C 2,2 C 100 % 1033,2 hPa 0,0 l/m 0 min 0 min 0 W/m 3,2 km/h (1 Bft) 97,92 %
15.01.2022 02:04 2,2 C 1,7 C 2,2 C 100 % 1033,2 hPa 0,0 l/m 0 min 0 min 0 W/m 3,2 km/h (1 Bft) 97,87 %
15.01.2022 02:06 2,2 C 1,7 C 2,2 C 100 % 1033,1 hPa 0,0 l/m 0 min 0 min 0 W/m 6,4 km/h (2 Bft) 97,87 %
15.01.2022 02:08 2,2 C 1,7 C 2,2 C 100 % 1033,1 hPa 0,0 l/m 0 min 0 min 0 W/m 6,4 km/h (2 Bft) 100,00 %
15.01.2022 02:10 2,2 C 1,7 C 2,2 C 100 % 1033,1 hPa 0,0 l/m 0 min 0 min 0 W/m 6,4 km/h (2 Bft) 97,83 %
15.01.2022 02:12 2,2 C 1,7 C 2,2 C 100 % 1033,0 hPa 0,0 l/m 0 min 0 min 0 W/m 12,9 km/h (3 Bft) 97,87 %
15.01.2022 02:14 2,2 C 1,7 C 2,2 C 100 % 1032,9 hPa 0,0 l/m 0 min 0 min 0 W/m 6,4 km/h (2 Bft) 97,87 %
15.01.2022 02:16 2,2 C 1,7 C 2,2 C 100 % 1032,9 hPa 0,0 l/m 0 min 0 min 0 W/m 12,9 km/h (3 Bft) 97,87 %
15.01.2022 02:18 2,2 C 1,7 C 2,2 C 100 % 1032,9 hPa 0,0 l/m 0 min 0 min 0 W/m 9,7 km/h (2 Bft) 100,00 %
15.01.2022 02:20 2,2 C 1,7 C 2,2 C 100 % 1032,9 hPa 0,0 l/m 0 min 0 min 0 W/m 6,4 km/h (2 Bft) 100,00 %
15.01.2022 02:22 2,2 C 1,7 C 2,2 C 100 % 1032,9 hPa 0,0 l/m 0 min 0 min 0 W/m 6,4 km/h (2 Bft) 100,00 %
15.01.2022 02:24 2,1 C 1,7 C 2,2 C 100 % 1032,9 hPa 0,0 l/m 0 min 0 min 0 W/m 6,4 km/h (2 Bft) 100,00 %
15.01.2022 02:26 2,1 C 1,7 C 2,2 C 100 % 1032,9 hPa 0,0 l/m 0 min 0 min 0 W/m 12,9 km/h (3 Bft) 97,87 %
15.01.2022 02:28 2,1 C 1,7 C 2,2 C 100 % 1032,9 hPa 0,0 l/m 0 min 0 min 0 W/m 12,9 km/h (3 Bft) 100,00 %
15.01.2022 02:30 2,1 C 1,7 C 2,2 C 100 % 1032,8 hPa 0,0 l/m 0 min 0 min 0 W/m 6,4 km/h (2 Bft) 100,00 %
15.01.2022 02:32 2,1 C 1,7 C 2,2 C 100 % 1032,9 hPa 0,0 l/m 0 min 0 min 0 W/m 6,4 km/h (2 Bft) 100,00 %
15.01.2022 02:34 2,0 C 1,1 C 2,2 C 100 % 1032,9 hPa 0,0 l/m 0 min 0 min 0 W/m 12,9 km/h (3 Bft) 100,00 %
15.01.2022 02:36 2,0 C 1,1 C 1,7 C 100 % 1032,8 hPa 0,0 l/m 0 min 0 min 0 W/m 6,4 km/h (2 Bft) 100,00 %
15.01.2022 02:38 1,9 C 1,1 C 2,2 C 100 % 1032,8 hPa 0,0 l/m 0 min 0 min 0 W/m 6,4 km/h (2 Bft) 100,00 %
15.01.2022 02:40 1,9 C 1,1 C 1,7 C 100 % 1032,8 hPa 0,0 l/m 0 min 0 min 0 W/m 6,4 km/h (2 Bft) 100,00 %
15.01.2022 02:42 1,9 C 1,1 C 1,7 C 100 % 1032,8 hPa 0,0 l/m 0 min 0 min 0 W/m 6,4 km/h (2 Bft) 100,00 %
15.01.2022 02:44 1,9 C 1,1 C 1,7 C 100 % 1032,8 hPa 0,0 l/m 0 min 0 min 0 W/m 12,9 km/h (3 Bft) 100,00 %
15.01.2022 02:46 1,9 C 1,1 C 1,7 C 100 % 1032,8 hPa 0,0 l/m 0 min 0 min 0 W/m 6,4 km/h (2 Bft) 100,00 %
15.01.2022 02:48 1,8 C 1,1 C 1,7 C 100 % 1032,8 hPa 0,0 l/m 0 min 0 min 0 W/m 6,4 km/h (2 Bft) 100,00 %
15.01.2022 02:50 1,8 C 1,1 C 1,7 C 100 % 1032,7 hPa 0,0 l/m 0 min 0 min 0 W/m 12,9 km/h (3 Bft) 97,87 %
15.01.2022 02:52 1,8 C 1,1 C 1,7 C 100 % 1032,7 hPa 0,0 l/m 0 min 0 min 0 W/m 12,9 km/h (3 Bft) 100,00 %
15.01.2022 02:54 1,8 C 1,1 C 1,7 C 100 % 1032,7 hPa 0,0 l/m 0 min 0 min 0 W/m 3,2 km/h (1 Bft) 54,55 %
15.01.2022 02:56 1,8 C 1,1 C 1,7 C 100 % 1032,7 hPa 0,0 l/m 0 min 0 min 0 W/m 12,9 km/h (3 Bft) 97,78 %
15.01.2022 02:58 1,8 C 1,1 C 1,7 C 100 % 1032,7 hPa 0,0 l/m 0 min 0 min 0 W/m 12,9 km/h (3 Bft) 100,00 %
15.01.2022 03:00 1,8 C 1,1 C 1,7 C 100 % 1032,6 hPa 0,0 l/m 0 min 0 min 0 W/m 6,4 km/h (2 Bft) 100,00 %
15.01.2022 03:02 1,8 C 1,1 C 1,7 C 100 % 1032,7 hPa 0,0 l/m 0 min 0 min 0 W/m 6,4 km/h (2 Bft) 100,00 %
15.01.2022 03:04 1,8 C 1,1 C 1,7 C 100 % 1032,6 hPa 0,0 l/m 0 min 0 min 0 W/m 3,2 km/h (1 Bft) 100,00 %
15.01.2022 03:06 1,8 C 1,1 C 1,7 C 100 % 1032,7 hPa 0,0 l/m 0 min 0 min 0 W/m 6,4 km/h (2 Bft) 100,00 %
15.01.2022 03:08 1,8 C 1,1 C 1,7 C 100 % 1032,7 hPa 0,0 l/m 0 min 0 min 0 W/m 6,4 km/h (2 Bft) 100,00 %
15.01.2022 03:10 1,8 C 1,1 C 1,7 C 100 % 1032,7 hPa 0,0 l/m 0 min 0 min 0 W/m 3,2 km/h (1 Bft) 100,00 %
15.01.2022 03:12 1,8 C 1,1 C 1,7 C 100 % 1032,7 hPa 0,0 l/m 0 min 0 min 0 W/m 6,4 km/h (2 Bft) 100,00 %
15.01.2022 03:14 1,8 C 1,1 C 1,7 C 100 % 1032,6 hPa 0,0 l/m 0 min 0 min 0 W/m 6,4 km/h (2 Bft) 100,00 %
15.01.2022 03:16 1,8 C 1,1 C 1,7 C 100 % 1032,6 hPa 0,0 l/m 0 min 0 min 0 W/m 3,2 km/h (1 Bft) 100,00 %
15.01.2022 03:18 1,8 C 1,1 C 1,7 C 100 % 1032,6 hPa 0,0 l/m 0 min 0 min 0 W/m 6,4 km/h (2 Bft) 100,00 %
15.01.2022 03:20 1,8 C 1,1 C 1,7 C 100 % 1032,6 hPa 0,0 l/m 0 min 0 min 0 W/m 6,4 km/h (2 Bft) 100,00 %
15.01.2022 03:22 1,8 C 1,1 C 1,7 C 100 % 1032,5 hPa 0,0 l/m 0 min 0 min 0 W/m 3,2 km/h (1 Bft) 100,00 %
15.01.2022 03:24 1,8 C 1,1 C 1,7 C 100 % 1032,5 hPa 0,0 l/m 0 min 0 min 0 W/m 6,4 km/h (2 Bft) 100,00 %
15.01.2022 03:26 1,8 C 1,1 C 1,7 C 100 % 1032,5 hPa 0,0 l/m 0 min 0 min 0 W/m 6,4 km/h (2 Bft) 100,00 %
15.01.2022 03:28 1,8 C 1,1 C 1,7 C 100 % 1032,4 hPa 0,0 l/m 0 min 0 min 0 W/m 12,9 km/h (3 Bft) 95,74 %
15.01.2022 03:30 1,8 C 1,1 C 1,7 C 100 % 1032,4 hPa 0,0 l/m 0 min 0 min 0 W/m 6,4 km/h (2 Bft) 97,87 %
15.01.2022 03:32 1,8 C 1,1 C 1,7 C 100 % 1032,4 hPa 0,0 l/m 0 min 0 min 0 W/m 6,4 km/h (2 Bft) 97,83 %
15.01.2022 03:34 1,8 C 1,1 C 1,7 C 100 % 1032,4 hPa 0,0 l/m 0 min 0 min 0 W/m 6,4 km/h (2 Bft) 97,87 %
15.01.2022 03:36 1,8 C 1,1 C 1,7 C 100 % 1032,4 hPa 0,0 l/m 0 min 0 min 0 W/m 6,4 km/h (2 Bft) 97,87 %
15.01.2022 03:38 1,8 C 1,1 C 1,7 C 100 % 1032,4 hPa 0,0 l/m 0 min 0 min 0 W/m 6,4 km/h (2 Bft) 95,74 %
15.01.2022 03:40 1,8 C 1,1 C 1,7 C 100 % 1032,4 hPa 0,0 l/m 0 min 0 min 0 W/m 6,4 km/h (2 Bft) 93,62 %
15.01.2022 03:42 1,8 C 1,1 C 1,7 C 100 % 1032,3 hPa 0,0 l/m 0 min 0 min 0 W/m 6,4 km/h (2 Bft) 93,62 %
15.01.2022 03:44 1,8 C 1,1 C 1,7 C 100 % 1032,3 hPa 0,0 l/m 0 min 0 min 0 W/m 6,4 km/h (2 Bft) 91,30 %
15.01.2022 03:46 1,8 C 1,1 C 1,7 C 100 % 1032,3 hPa 0,0 l/m 0 min 0 min 0 W/m 6,4 km/h (2 Bft) 93,62 %
15.01.2022 03:48 1,8 C 1,1 C 1,7 C 100 % 1032,3 hPa 0,0 l/m 0 min 0 min 0 W/m 3,2 km/h (1 Bft) 93,62 %
15.01.2022 03:50 1,8 C 1,1 C 1,7 C 100 % 1032,2 hPa 0,0 l/m 0 min 0 min 0 W/m 6,4 km/h (2 Bft) 93,62 %
15.01.2022 03:52 1,8 C 1,1 C 1,7 C 100 % 1032,2 hPa 0,0 l/m 0 min 0 min 0 W/m 9,7 km/h (2 Bft) 95,74 %
15.01.2022 03:54 1,8 C 1,1 C 1,7 C 100 % 1032,2 hPa 0,0 l/m 0 min 0 min 0 W/m 3,2 km/h (1 Bft) 93,62 %
15.01.2022 03:56 1,8 C 1,1 C 1,7 C 100 % 1032,2 hPa 0,0 l/m 0 min 0 min 0 W/m 6,4 km/h (2 Bft) 93,48 %
15.01.2022 03:58 1,8 C 1,1 C 1,7 C 100 % 1032,2 hPa 0,0 l/m 0 min 0 min 0 W/m 6,4 km/h (2 Bft) 91,49 %
15.01.2022 04:00 1,8 C 1,1 C 1,7 C 100 % 1032,2 hPa 0,0 l/m 0 min 0 min 0 W/m 6,4 km/h (2 Bft) 93,62 %
15.01.2022 04:02 1,8 C 1,1 C 1,7 C 100 % 1032,2 hPa 0,0 l/m 0 min 0 min 0 W/m 3,2 km/h (1 Bft) 97,44 %
15.01.2022 04:04 1,8 C 1,1 C 1,7 C 100 % 1032,2 hPa 0,0 l/m 0 min 0 min 0 W/m 12,9 km/h (3 Bft) 95,74 %
15.01.2022 04:06 1,8 C 1,1 C 1,7 C 100 % 1032,2 hPa 0,0 l/m 0 min 0 min 0 W/m 6,4 km/h (2 Bft) 93,48 %
15.01.2022 04:08 1,8 C 1,1 C 1,7 C 100 % 1032,1 hPa 0,0 l/m 0 min 0 min 0 W/m 12,9 km/h (3 Bft) 93,62 %
15.01.2022 04:10 1,8 C 1,1 C 1,7 C 100 % 1032,1 hPa 0,0 l/m 0 min 0 min 0 W/m 9,7 km/h (2 Bft) 95,74 %
15.01.2022 04:12 1,8 C 1,1 C 1,7 C 99 % 1032,1 hPa 0,0 l/m 0 min 0 min 0 W/m 6,4 km/h (2 Bft) 93,62 %
15.01.2022 04:14 1,8 C 1,1 C 1,7 C 99 % 1032,1 hPa 0,0 l/m 0 min 0 min 0 W/m 6,4 km/h (2 Bft) 93,62 %
15.01.2022 04:16 1,8 C 1,1 C 1,7 C 100 % 1032,0 hPa 0,0 l/m 0 min 0 min 0 W/m 12,9 km/h (3 Bft) 97,87 %
15.01.2022 04:18 1,8 C 1,1 C 1,7 C 100 % 1032,0 hPa 0,0 l/m 0 min 0 min 0 W/m 12,9 km/h (3 Bft) 95,65 %
15.01.2022 04:20 1,8 C 1,1 C 1,7 C 99 % 1032,0 hPa 0,0 l/m 0 min 0 min 0 W/m 12,9 km/h (3 Bft) 95,74 %
15.01.2022 04:22 1,7 C 1,1 C 1,7 C 99 % 1032,0 hPa 0,0 l/m 0 min 0 min 0 W/m 12,9 km/h (3 Bft) 97,87 %
15.01.2022 04:24 1,7 C 1,1 C 1,7 C 99 % 1032,0 hPa 0,0 l/m 0 min 0 min 0 W/m 12,9 km/h (3 Bft) 97,87 %
15.01.2022 04:26 1,7 C 1,1 C 1,7 C 100 % 1031,9 hPa 0,0 l/m 0 min 0 min 0 W/m 12,9 km/h (3 Bft) 100,00 %
15.01.2022 04:28 1,7 C 1,1 C 1,7 C 100 % 1031,8 hPa 0,0 l/m 0 min 0 min 0 W/m 6,4 km/h (2 Bft) 100,00 %
15.01.2022 04:30 1,7 C 1,1 C 1,7 C 100 % 1031,8 hPa 0,0 l/m 0 min 0 min 0 W/m 6,4 km/h (2 Bft) 100,00 %
15.01.2022 04:32 1,7 C 1,1 C 1,7 C 100 % 1031,8 hPa 0,0 l/m 0 min 0 min 0 W/m 12,9 km/h (3 Bft) 97,87 %
15.01.2022 04:34 1,7 C 1,1 C 1,7 C 100 % 1031,8 hPa 0,0 l/m 0 min 0 min 0 W/m 12,9 km/h (3 Bft) 100,00 %
15.01.2022 04:36 1,7 C 1,1 C 1,7 C 100 % 1031,8 hPa 0,0 l/m 0 min 0 min 0 W/m 12,9 km/h (3 Bft) 95,74 %
15.01.2022 04:38 1,7 C 1,1 C 1,7 C 100 % 1031,7 hPa 0,0 l/m 0 min 0 min 0 W/m 12,9 km/h (3 Bft) 100,00 %
15.01.2022 04:40 1,7 C 1,1 C 1,7 C 100 % 1031,7 hPa 0,0 l/m 0 min 0 min 0 W/m 16,1 km/h (3 Bft) 97,87 %
15.01.2022 04:42 1,7 C 1,1 C 1,7 C 100 % 1031,7 hPa 0,0 l/m 0 min 0 min 0 W/m 6,4 km/h (2 Bft) 95,65 %
15.01.2022 04:44 1,7 C 1,1 C 1,7 C 100 % 1031,7 hPa 0,0 l/m 0 min 0 min 0 W/m 16,1 km/h (3 Bft) 100,00 %
15.01.2022 04:46 1,7 C 1,1 C 1,7 C 100 % 1031,7 hPa 0,0 l/m 0 min 0 min 0 W/m 12,9 km/h (3 Bft) 100,00 %
15.01.2022 04:48 1,7 C 1,1 C 1,7 C 100 % 1031,6 hPa 0,0 l/m 0 min 0 min 0 W/m 12,9 km/h (3 Bft) 100,00 %
15.01.2022 04:50 1,6 C 1,1 C 1,7 C 100 % 1031,7 hPa 0,0 l/m 0 min 0 min 0 W/m 6,4 km/h (2 Bft) 97,87 %
15.01.2022 04:52 1,6 C 1,1 C 1,7 C 100 % 1031,6 hPa 0,0 l/m 0 min 0 min 0 W/m 16,1 km/h (3 Bft) 97,87 %
15.01.2022 04:54 1,6 C 1,1 C 1,7 C 100 % 1031,6 hPa 0,0 l/m 0 min 0 min 0 W/m 9,7 km/h (2 Bft) 100,00 %
15.01.2022 04:56 1,6 C 1,1 C 1,7 C 100 % 1031,6 hPa 0,0 l/m 0 min 0 min 0 W/m 12,9 km/h (3 Bft) 100,00 %
15.01.2022 04:58 1,6 C 1,1 C 1,7 C 100 % 1031,5 hPa 0,0 l/m 0 min 0 min 0 W/m 16,1 km/h (3 Bft) 100,00 %
15.01.2022 05:00 1,6 C 1,1 C 1,7 C 100 % 1031,5 hPa 0,0 l/m 0 min 0 min 0 W/m 12,9 km/h (3 Bft) 97,87 %
15.01.2022 05:02 1,5 C 1,1 C 1,7 C 100 % 1031,5 hPa 0,0 l/m 0 min 0 min 0 W/m 16,1 km/h (3 Bft) 97,87 %
15.01.2022 05:04 1,5 C 1,1 C 1,7 C 100 % 1031,4 hPa 0,0 l/m 0 min 0 min 0 W/m 9,7 km/h (2 Bft) 100,00 %
15.01.2022 05:06 1,4 C 0,6 C 1,7 C 100 % 1031,4 hPa 0,0 l/m 0 min 0 min 0 W/m 12,9 km/h (3 Bft) 97,87 %
15.01.2022 05:08 1,4 C 0,6 C 1,7 C 100 % 1031,4 hPa 0,0 l/m 0 min 0 min 0 W/m 6,4 km/h (2 Bft) 100,00 %
15.01.2022 05:10 1,4 C 0,6 C 1,7 C 99 % 1031,4 hPa 0,0 l/m 0 min 0 min 0 W/m 12,9 km/h (3 Bft) 100,00 %
15.01.2022 05:12 1,4 C 0,6 C 1,7 C 99 % 1031,3 hPa 0,0 l/m 0 min 0 min 0 W/m 12,9 km/h (3 Bft) 100,00 %
15.01.2022 05:14 1,3 C 0,6 C 1,7 C 99 % 1031,3 hPa 0,0 l/m 0 min 0 min 0 W/m 12,9 km/h (3 Bft) 100,00 %
15.01.2022 05:16 1,3 C 0,6 C 1,7 C 99 % 1031,3 hPa 0,0 l/m 0 min 0 min 0 W/m 12,9 km/h (3 Bft) 97,83 %
15.01.2022 05:18 1,3 C 0,6 C 1,7 C 99 % 1031,3 hPa 0,0 l/m 0 min 0 min 0 W/m 6,4 km/h (2 Bft) 100,00 %
15.01.2022 05:20 1,3 C 0,6 C 1,7 C 99 % 1031,2 hPa 0,0 l/m 0 min 0 min 0 W/m 16,1 km/h (3 Bft) 100,00 %
15.01.2022 05:22 1,3 C 0,6 C 1,7 C 99 % 1031,2 hPa 0,0 l/m 0 min 0 min 0 W/m 16,1 km/h (3 Bft) 97,87 %
15.01.2022 05:24 1,3 C 0,6 C 1,7 C 99 % 1031,2 hPa 0,0 l/m 0 min 0 min 0 W/m 16,1 km/h (3 Bft) 100,00 %
15.01.2022 05:26 1,2 C 0,6 C 1,7 C 99 % 1031,2 hPa 0,0 l/m 0 min 0 min 0 W/m 12,9 km/h (3 Bft) 100,00 %
15.01.2022 05:28 1,2 C 0,6 C 1,7 C 100 % 1031,2 hPa 0,0 l/m 0 min 0 min 0 W/m 12,9 km/h (3 Bft) 97,83 %
15.01.2022 05:30 1,2 C 0,6 C 1,7 C 100 % 1031,2 hPa 0,0 l/m 0 min 0 min 0 W/m 12,9 km/h (3 Bft) 100,00 %
15.01.2022 05:32 1,2 C 0,6 C 1,7 C 100 % 1031,2 hPa 0,0 l/m 0 min 0 min 0 W/m 16,1 km/h (3 Bft) 95,74 %
15.01.2022 05:34 1,2 C 0,6 C 1,7 C 100 % 1031,2 hPa 0,0 l/m 0 min 0 min 0 W/m 6,4 km/h (2 Bft) 97,87 %
15.01.2022 05:36 1,2 C 0,6 C 1,1 C 100 % 1031,2 hPa 0,0 l/m 0 min 0 min 0 W/m 12,9 km/h (3 Bft) 95,83 %
15.01.2022 05:38 1,2 C 0,6 C 1,7 C 100 % 1031,2 hPa 0,0 l/m 0 min 0 min 0 W/m 12,9 km/h (3 Bft) 97,87 %
15.01.2022 05:40 1,2 C 0,6 C 1,1 C 100 % 1031,2 hPa 0,0 l/m 0 min 0 min 0 W/m 19,3 km/h (3 Bft) 100,00 %
15.01.2022 05:42 1,1 C 0,6 C 1,1 C 100 % 1031,2 hPa 0,0 l/m 0 min 0 min 0 W/m 12,9 km/h (3 Bft) 97,87 %
15.01.2022 05:44 1,1 C 0,6 C 1,1 C 100 % 1031,2 hPa 0,0 l/m 0 min 0 min 0 W/m 12,9 km/h (3 Bft) 95,74 %
15.01.2022 05:46 1,1 C 0,6 C 1,1 C 100 % 1031,1 hPa 0,0 l/m 0 min 0 min 0 W/m 9,7 km/h (2 Bft) 97,87 %
15.01.2022 05:48 1,1 C 0,6 C 1,1 C 100 % 1031,2 hPa 0,0 l/m 0 min 0 min 0 W/m 12,9 km/h (3 Bft) 97,87 %
15.01.2022 05:50 1,1 C 0,6 C 1,1 C 99 % 1031,2 hPa 0,0 l/m 0 min 0 min 0 W/m 19,3 km/h (3 Bft) 97,87 %
15.01.2022 05:52 1,1 C 0,6 C 1,1 C 99 % 1031,2 hPa 0,0 l/m 0 min 0 min 0 W/m 12,9 km/h (3 Bft) 98,15 %
15.01.2022 05:54 1,0 C 0,6 C 1,1 C 99 % 1031,1 hPa 0,0 l/m 0 min 0 min 0 W/m 19,3 km/h (3 Bft) 98,00 %
15.01.2022 05:56 1,0 C 0,6 C 1,1 C 99 % 1031,1 hPa 0,0 l/m 0 min 0 min 0 W/m 12,9 km/h (3 Bft) 95,74 %
15.01.2022 05:58 0,9 C 0,6 C 1,1 C 99 % 1031,1 hPa 0,0 l/m 0 min 0 min 0 W/m 9,7 km/h (2 Bft) 97,22 %
15.01.2022 06:00 0,9 C 0,6 C 1,1 C 99 % 1031,1 hPa 0,0 l/m 0 min 0 min 0 W/m 12,9 km/h (3 Bft) 97,87 %
15.01.2022 06:02 0,9 C 0,6 C 1,1 C 99 % 1031,1 hPa 0,0 l/m 0 min 0 min 0 W/m 12,9 km/h (3 Bft) 100,00 %
15.01.2022 06:04 0,9 C 0,6 C 1,1 C 99 % 1031,0 hPa 0,0 l/m 0 min 0 min 0 W/m 6,4 km/h (2 Bft) 97,83 %
15.01.2022 06:06 0,9 C 0,6 C 1,1 C 99 % 1031,1 hPa 0,0 l/m 0 min 0 min 0 W/m 6,4 km/h (2 Bft) 97,87 %
15.01.2022 06:08 0,9 C 0,6 C 1,1 C 100 % 1031,1 hPa 0,0 l/m 0 min 0 min 0 W/m 19,3 km/h (3 Bft) 97,87 %
15.01.2022 06:10 0,9 C 0,6 C 1,1 C 100 % 1031,1 hPa 0,0 l/m 0 min 0 min 0 W/m 16,1 km/h (3 Bft) 95,74 %
15.01.2022 06:12 0,8 C 0,6 C 1,1 C 100 % 1031,1 hPa 0,0 l/m 0 min 0 min 0 W/m 12,9 km/h (3 Bft) 97,87 %
15.01.2022 06:14 0,8 C 0,6 C 1,1 C 100 % 1031,1 hPa 0,0 l/m 0 min 0 min 0 W/m 6,4 km/h (2 Bft) 98,15 %
15.01.2022 06:16 0,8 C 0,0 C 1,1 C 100 % 1031,1 hPa 0,0 l/m 0 min 0 min 0 W/m 16,1 km/h (3 Bft) 55,32 %
15.01.2022 06:18 0,8 C 0,0 C 1,1 C 100 % 1031,1 hPa 0,0 l/m 0 min 0 min 0 W/m 6,4 km/h (2 Bft) 98,00 %
15.01.2022 06:20 0,7 C 0,0 C 1,1 C 100 % 1031,1 hPa 0,0 l/m 0 min 0 min 0 W/m 16,1 km/h (3 Bft) 97,22 %
15.01.2022 06:22 0,7 C 0,0 C 1,1 C 99 % 1031,0 hPa 0,0 l/m 0 min 0 min 0 W/m 12,9 km/h (3 Bft) 97,87 %
15.01.2022 06:24 0,7 C 0,0 C 1,1 C 99 % 1031,0 hPa 0,0 l/m 0 min 0 min 0 W/m 6,4 km/h (2 Bft) 100,00 %
15.01.2022 06:26 0,7 C 0,0 C 1,1 C 99 % 1031,0 hPa 0,0 l/m 0 min 0 min 0 W/m 6,4 km/h (2 Bft) 100,00 %
15.01.2022 06:28 0,7 C 0,0 C 1,1 C 99 % 1031,0 hPa 0,0 l/m 0 min 0 min 0 W/m 6,4 km/h (2 Bft) 97,87 %
15.01.2022 06:30 0,7 C 0,0 C 1,1 C 99 % 1031,0 hPa 0,0 l/m 0 min 0 min 0 W/m 16,1 km/h (3 Bft) 100,00 %
15.01.2022 06:32 0,7 C 0,0 C 1,1 C 99 % 1031,0 hPa 0,0 l/m 0 min 0 min 0 W/m 6,4 km/h (2 Bft) 100,00 %
15.01.2022 06:37 0,7 C 0,0 C 1,1 C 99 % 1030,9 hPa 0,0 l/m 0 min 0 min 0 W/m 9,7 km/h (2 Bft) 100,00 %
15.01.2022 06:38 0,7 C 0,0 C 1,1 C 99 % 1030,9 hPa 0,0 l/m 0 min 0 min 0 W/m 12,9 km/h (3 Bft) 95,65 %
15.01.2022 06:40 0,7 C 0,0 C 1,1 C 99 % 1030,9 hPa 0,0 l/m 0 min 0 min 0 W/m 12,9 km/h (3 Bft) 97,87 %
15.01.2022 06:42 0,7 C 0,0 C 1,1 C 99 % 1030,9 hPa 0,0 l/m 0 min 0 min 0 W/m 12,9 km/h (3 Bft) 95,74 %
15.01.2022 06:44 0,7 C 0,0 C 1,1 C 99 % 1030,9 hPa 0,0 l/m 0 min 0 min 0 W/m 19,3 km/h (3 Bft) 97,87 %
15.01.2022 06:46 0,7 C 0,0 C 1,1 C 99 % 1030,9 hPa 0,0 l/m 0 min 0 min 0 W/m 12,9 km/h (3 Bft) 93,62 %
15.01.2022 06:48 0,6 C 0,0 C 1,1 C 99 % 1030,8 hPa 0,0 l/m 0 min 0 min 0 W/m 12,9 km/h (3 Bft) 97,83 %
15.01.2022 06:50 0,6 C 0,0 C 1,1 C 99 % 1030,8 hPa 0,0 l/m 0 min 0 min 0 W/m 12,9 km/h (3 Bft) 95,74 %
15.01.2022 06:52 0,6 C 0,0 C 1,1 C 99 % 1030,8 hPa 0,0 l/m 0 min 0 min 0 W/m 6,4 km/h (2 Bft) 97,87 %
15.01.2022 06:54 0,6 C 0,0 C 1,1 C 99 % 1030,8 hPa 0,0 l/m 0 min 0 min 0 W/m 12,9 km/h (3 Bft) 97,87 %
15.01.2022 06:56 0,7 C 0,0 C 1,1 C 99 % 1030,8 hPa 0,0 l/m 0 min 0 min 0 W/m 12,9 km/h (3 Bft) 97,87 %
15.01.2022 06:58 0,6 C 0,0 C 1,1 C 99 % 1030,8 hPa 0,0 l/m 0 min 0 min 0 W/m 6,4 km/h (2 Bft) 97,87 %
15.01.2022 07:00 0,7 C 0,0 C 1,1 C 99 % 1030,8 hPa 0,0 l/m 0 min 0 min 0 W/m 25,7 km/h (4 Bft) 97,87 %
15.01.2022 07:02 0,6 C 0,0 C 1,1 C 99 % 1030,8 hPa 0,0 l/m 0 min 0 min 0 W/m 12,9 km/h (3 Bft) 97,14 %
15.01.2022 07:04 0,6 C 0,0 C 1,1 C 99 % 1030,8 hPa 0,0 l/m 0 min 0 min 0 W/m 6,4 km/h (2 Bft) 97,87 %
15.01.2022 07:06 0,7 C 0,6 C 1,1 C 99 % 1030,8 hPa 0,0 l/m 0 min 0 min 0 W/m 6,4 km/h (2 Bft) 98,31 %
15.01.2022 07:08 0,7 C 0,6 C 1,1 C 99 % 1030,9 hPa 0,0 l/m 0 min 0 min 0 W/m 9,7 km/h (2 Bft) 97,14 %
15.01.2022 07:10 0,7 C 0,6 C 1,1 C 99 % 1030,8 hPa 0,0 l/m 0 min 0 min 0 W/m 6,4 km/h (2 Bft) 96,55 %
15.01.2022 07:12 0,7 C 0,6 C 1,1 C 99 % 1030,8 hPa 0,0 l/m 0 min 0 min 0 W/m 12,9 km/h (3 Bft) 97,87 %
15.01.2022 07:14 0,7 C 0,6 C 1,1 C 99 % 1030,8 hPa 0,0 l/m 0 min 0 min 0 W/m 6,4 km/h (2 Bft) 94,29 %
15.01.2022 07:16 0,7 C 0,6 C 1,1 C 99 % 1030,7 hPa 0,0 l/m 0 min 0 min 0 W/m 6,4 km/h (2 Bft) 97,87 %
15.01.2022 07:18 0,7 C 0,6 C 1,1 C 99 % 1030,8 hPa 0,0 l/m 0 min 0 min 0 W/m 12,9 km/h (3 Bft) 97,87 %
15.01.2022 07:20 0,7 C 0,6 C 1,1 C 99 % 1030,7 hPa 0,0 l/m 0 min 0 min 0 W/m 12,9 km/h (3 Bft) 98,31 %
15.01.2022 07:22 0,7 C 0,6 C 1,1 C 99 % 1030,7 hPa 0,0 l/m 0 min 0 min 0 W/m 6,4 km/h (2 Bft) 93,48 %
15.01.2022 07:24 0,7 C 0,6 C 1,1 C 99 % 1030,7 hPa 0,0 l/m 0 min 0 min 0 W/m 6,4 km/h (2 Bft) 93,62 %
15.01.2022 07:26 0,7 C 0,6 C 1,1 C 99 % 1030,7 hPa 0,0 l/m 0 min 0 min 0 W/m 16,1 km/h (3 Bft) 95,74 %
15.01.2022 07:28 0,7 C 0,0 C 1,1 C 99 % 1030,7 hPa 0,0 l/m 0 min 0 min 0 W/m 12,9 km/h (3 Bft) 95,74 %
15.01.2022 07:30 0,7 C 0,0 C 1,1 C 99 % 1030,7 hPa 0,0 l/m 0 min 0 min 0 W/m 12,9 km/h (3 Bft) 95,74 %
15.01.2022 07:32 0,7 C 0,6 C 1,1 C 99 % 1030,7 hPa 0,0 l/m 0 min 0 min 0 W/m 6,4 km/h (2 Bft) 94,29 %
15.01.2022 07:34 0,7 C 0,0 C 1,1 C 99 % 1030,7 hPa 0,0 l/m 0 min 0 min 0 W/m 12,9 km/h (3 Bft) 98,28 %
15.01.2022 07:36 0,7 C 0,0 C 1,1 C 99 % 1030,6 hPa 0,0 l/m 0 min 0 min 0 W/m 16,1 km/h (3 Bft) 93,62 %
15.01.2022 07:38 0,7 C 0,0 C 1,1 C 99 % 1030,6 hPa 0,0 l/m 0 min 0 min 0 W/m 16,1 km/h (3 Bft) 97,87 %
15.01.2022 07:40 0,7 C 0,6 C 1,1 C 99 % 1030,6 hPa 0,0 l/m 0 min 0 min 0 W/m 6,4 km/h (2 Bft) 97,14 %
15.01.2022 07:42 0,7 C 0,6 C 1,1 C 99 % 1030,6 hPa 0,0 l/m 0 min 0 min 0 W/m 6,4 km/h (2 Bft) 96,61 %
15.01.2022 07:44 0,8 C 0,6 C 1,1 C 100 % 1030,6 hPa 0,0 l/m 0 min 0 min 0 W/m 12,9 km/h (3 Bft) 97,14 %
15.01.2022 07:46 0,8 C 0,6 C 1,1 C 100 % 1030,6 hPa 0,0 l/m 0 min 0 min 0 W/m 16,1 km/h (3 Bft) 97,87 %
15.01.2022 07:48 0,8 C 0,6 C 1,1 C 100 % 1030,5 hPa 0,0 l/m 0 min 0 min 0 W/m 12,9 km/h (3 Bft) 97,83 %
15.01.2022 07:50 0,8 C 0,6 C 1,1 C 100 % 1030,6 hPa 0,0 l/m 0 min 0 min 0 W/m 12,9 km/h (3 Bft) 95,74 %
15.01.2022 07:52 0,8 C 0,6 C 1,1 C 100 % 1030,6 hPa 0,0 l/m 0 min 0 min 0 W/m 6,4 km/h (2 Bft) 97,87 %
15.01.2022 07:54 0,8 C 0,6 C 1,1 C 100 % 1030,6 hPa 0,0 l/m 0 min 0 min 0 W/m 12,9 km/h (3 Bft) 100,00 %
15.01.2022 07:56 0,8 C 0,6 C 1,1 C 100 % 1030,6 hPa 0,0 l/m 0 min 0 min 0 W/m 12,9 km/h (3 Bft) 97,87 %
15.01.2022 07:58 0,8 C 0,6 C 1,1 C 100 % 1030,6 hPa 0,0 l/m 0 min 0 min 0 W/m 6,4 km/h (2 Bft) 100,00 %
15.01.2022 08:00 0,9 C 0,6 C 1,1 C 100 % 1030,6 hPa 0,0 l/m 0 min 0 min 0 W/m 6,4 km/h (2 Bft) 100,00 %
15.01.2022 08:02 0,9 C 0,6 C 1,1 C 100 % 1030,5 hPa 0,0 l/m 0 min 0 min 0 W/m 12,9 km/h (3 Bft) 97,87 %
15.01.2022 08:04 0,9 C 0,6 C 1,1 C 100 % 1030,6 hPa 0,0 l/m 0 min 0 min 0 W/m 19,3 km/h (3 Bft) 100,00 %
15.01.2022 08:06 0,9 C 0,6 C 1,1 C 99 % 1030,5 hPa 0,0 l/m 0 min 0 min 0 W/m 12,9 km/h (3 Bft) 100,00 %
15.01.2022 08:08 0,9 C 0,6 C 1,1 C 100 % 1030,5 hPa 0,0 l/m 0 min 0 min 0 W/m 12,9 km/h (3 Bft) 97,14 %
15.01.2022 08:10 0,9 C 0,6 C 1,1 C 100 % 1030,5 hPa 0,0 l/m 0 min 0 min 0 W/m 12,9 km/h (3 Bft) 97,83 %
15.01.2022 08:12 0,9 C 0,6 C 1,1 C 100 % 1030,5 hPa 0,0 l/m 0 min 0 min 0 W/m 9,7 km/h (2 Bft) 98,31 %
15.01.2022 08:14 0,9 C 0,6 C 1,1 C 99 % 1030,5 hPa 0,0 l/m 0 min 0 min 0 W/m 6,4 km/h (2 Bft) 100,00 %
15.01.2022 08:16 0,9 C 0,6 C 1,1 C 99 % 1030,4 hPa 0,0 l/m 0 min 0 min 0 W/m 12,9 km/h (3 Bft) 100,00 %
15.01.2022 08:18 0,9 C 0,6 C 1,1 C 99 % 1030,5 hPa 0,0 l/m 0 min 0 min 0 W/m 9,7 km/h (2 Bft) 100,00 %
15.01.2022 08:20 0,9 C 0,6 C 1,1 C 99 % 1030,4 hPa 0,0 l/m 0 min 0 min 0 W/m 12,9 km/h (3 Bft) 100,00 %
15.01.2022 08:22 0,9 C 0,6 C 1,1 C 99 % 1030,4 hPa 0,0 l/m 0 min 0 min 0 W/m 12,9 km/h (3 Bft) 98,28 %
15.01.2022 08:24 0,9 C 0,6 C 1,1 C 99 % 1030,4 hPa 0,0 l/m 0 min 0 min 0 W/m 12,9 km/h (3 Bft) 97,14 %
15.01.2022 08:26 0,9 C 0,6 C 1,1 C 99 % 1030,4 hPa 0,0 l/m 0 min 0 min 0 W/m 16,1 km/h (3 Bft) 97,87 %
15.01.2022 08:28 0,9 C 0,6 C 1,1 C 99 % 1030,4 hPa 0,0 l/m 0 min 0 min 0 W/m 16,1 km/h (3 Bft) 97,87 %
15.01.2022 08:30 0,9 C 0,6 C 1,1 C 100 % 1030,4 hPa 0,0 l/m 0 min 0 min 0 W/m 12,9 km/h (3 Bft) 98,28 %
15.01.2022 08:32 0,9 C 0,6 C 1,1 C 100 % 1030,4 hPa 0,0 l/m 0 min 0 min 0 W/m 12,9 km/h (3 Bft) 97,22 %
15.01.2022 08:34 0,9 C 0,6 C 1,1 C 100 % 1030,3 hPa 0,0 l/m 0 min 0 min 0 W/m 12,9 km/h (3 Bft) 97,83 %
15.01.2022 08:36 0,9 C 0,6 C 1,1 C 100 % 1030,4 hPa 0,0 l/m 0 min 0 min 0 W/m 12,9 km/h (3 Bft) 98,31 %
15.01.2022 08:38 0,9 C 0,6 C 1,1 C 100 % 1030,3 hPa 0,0 l/m 0 min 0 min 0 W/m 6,4 km/h (2 Bft) 97,14 %
15.01.2022 08:40 0,9 C 0,6 C 1,1 C 100 % 1030,4 hPa 0,0 l/m 0 min 0 min 0 W/m 9,7 km/h (2 Bft) 97,87 %
15.01.2022 08:42 0,9 C 0,6 C 1,1 C 100 % 1030,4 hPa 0,0 l/m 0 min 0 min 0 W/m 16,1 km/h (3 Bft) 95,74 %
15.01.2022 08:44 0,9 C 0,6 C 1,1 C 100 % 1030,4 hPa 0,0 l/m 0 min 0 min 0 W/m 12,9 km/h (3 Bft) 96,55 %
15.01.2022 08:46 0,8 C 0,6 C 1,1 C 100 % 1030,4 hPa 0,0 l/m 0 min 0 min 0 W/m 16,1 km/h (3 Bft) 97,87 %
15.01.2022 08:48 0,8 C 0,6 C 1,1 C 100 % 1030,4 hPa 0,0 l/m 0 min 0 min 0 W/m 12,9 km/h (3 Bft) 97,87 %
15.01.2022 08:50 0,8 C 0,6 C 1,1 C 100 % 1030,4 hPa 0,0 l/m 0 min 0 min 0 W/m 6,4 km/h (2 Bft) 97,87 %
15.01.2022 08:52 0,9 C 0,6 C 1,1 C 100 % 1030,4 hPa 0,0 l/m 0 min 0 min 0 W/m 12,9 km/h (3 Bft) 97,87 %
15.01.2022 08:54 0,9 C 0,6 C 1,1 C 100 % 1030,4 hPa 0,0 l/m 0 min 0 min 0 W/m 6,4 km/h (2 Bft) 97,14 %
15.01.2022 08:56 0,9 C 0,6 C 1,1 C 100 % 1030,4 hPa 0,0 l/m 0 min 0 min 3 W/m 6,4 km/h (2 Bft) 97,87 %
15.01.2022 08:58 0,9 C 0,6 C 1,1 C 100 % 1030,4 hPa 0,0 l/m 0 min 0 min 5 W/m 6,4 km/h (2 Bft) 97,83 %
15.01.2022 09:00 0,9 C 0,6 C 1,1 C 100 % 1030,4 hPa 0,0 l/m 0 min 0 min 5 W/m 6,4 km/h (2 Bft) 97,87 %
15.01.2022 09:02 0,9 C 0,6 C 1,1 C 100 % 1030,4 hPa 0,0 l/m 0 min 0 min 5 W/m 12,9 km/h (3 Bft) 100,00 %
15.01.2022 09:04 0,9 C 0,6 C 1,1 C 100 % 1030,4 hPa 0,0 l/m 0 min 0 min 5 W/m 12,9 km/h (3 Bft) 100,00 %
15.01.2022 09:06 0,9 C 0,6 C 1,1 C 100 % 1030,3 hPa 0,0 l/m 0 min 0 min 6 W/m 12,9 km/h (3 Bft) 100,00 %
15.01.2022 09:08 0,9 C 0,6 C 1,1 C 100 % 1030,3 hPa 0,0 l/m 0 min 0 min 7 W/m 12,9 km/h (3 Bft) 97,87 %
15.01.2022 09:10 0,9 C 0,6 C 1,1 C 100 % 1030,2 hPa 0,0 l/m 0 min 0 min 7 W/m 12,9 km/h (3 Bft) 100,00 %
15.01.2022 09:12 0,9 C 0,6 C 1,1 C 100 % 1030,1 hPa 0,0 l/m 0 min 0 min 8 W/m 16,1 km/h (3 Bft) 100,00 %
15.01.2022 09:14 0,9 C 0,6 C 1,1 C 100 % 1030,1 hPa 0,0 l/m 0 min 0 min 9 W/m 6,4 km/h (2 Bft) 100,00 %
15.01.2022 09:16 0,8 C 0,6 C 1,1 C 100 % 1030,1 hPa 0,0 l/m 0 min 0 min 9 W/m 19,3 km/h (3 Bft) 97,87 %
15.01.2022 09:18 0,8 C 0,6 C 1,1 C 100 % 1030,1 hPa 0,0 l/m 0 min 0 min 9 W/m 19,3 km/h (3 Bft) 97,87 %
15.01.2022 09:20 0,8 C 0,6 C 1,1 C 99 % 1030,1 hPa 0,0 l/m 0 min 0 min 9 W/m 19,3 km/h (3 Bft) 97,87 %
15.01.2022 09:22 0,8 C 0,6 C 1,1 C 99 % 1030,2 hPa 0,0 l/m 0 min 0 min 10 W/m 6,4 km/h (2 Bft) 97,83 %
15.01.2022 09:24 0,8 C 0,6 C 1,1 C 99 % 1030,1 hPa 0,0 l/m 0 min 0 min 11 W/m 6,4 km/h (2 Bft) 97,87 %
15.01.2022 09:26 0,8 C 0,6 C 1,1 C 99 % 1030,2 hPa 0,0 l/m 0 min 0 min 11 W/m 12,9 km/h (3 Bft) 95,74 %
15.01.2022 09:28 0,8 C 0,6 C 1,7 C 100 % 1030,2 hPa 0,0 l/m 0 min 0 min 11 W/m 16,1 km/h (3 Bft) 97,87 %
15.01.2022 09:30 0,8 C 0,6 C 1,7 C 100 % 1030,1 hPa 0,0 l/m 0 min 0 min 11 W/m 12,9 km/h (3 Bft) 97,87 %
15.01.2022 09:32 0,8 C 0,6 C 1,1 C 100 % 1030,1 hPa 0,0 l/m 0 min 0 min 12 W/m 16,1 km/h (3 Bft) 95,74 %
15.01.2022 09:34 0,8 C 0,6 C 1,1 C 100 % 1030,1 hPa 0,0 l/m 0 min 0 min 15 W/m 19,3 km/h (3 Bft) 97,83 %
15.01.2022 09:36 0,8 C 0,6 C 1,1 C 100 % 1030,1 hPa 0,0 l/m 0 min 0 min 16 W/m 22,5 km/h (4 Bft) 95,74 %
15.01.2022 09:38 0,8 C 0,6 C 1,1 C 99 % 1030,1 hPa 0,0 l/m 0 min 0 min 16 W/m 19,3 km/h (3 Bft) 97,87 %
15.01.2022 09:40 0,8 C 0,6 C 1,1 C 99 % 1030,1 hPa 0,0 l/m 0 min 0 min 17 W/m 16,1 km/h (3 Bft) 97,87 %
15.01.2022 09:42 0,8 C 0,6 C 1,1 C 99 % 1030,1 hPa 0,0 l/m 0 min 0 min 18 W/m 16,1 km/h (3 Bft) 97,87 %
15.01.2022 09:44 0,8 C 0,6 C 1,1 C 99 % 1030,1 hPa 0,0 l/m 0 min 0 min 18 W/m 6,4 km/h (2 Bft) 95,65 %
15.01.2022 09:46 0,8 C 0,6 C 1,1 C 99 % 1030,1 hPa 0,0 l/m 0 min 0 min 18 W/m 6,4 km/h (2 Bft) 97,87 %
15.01.2022 09:48 0,8 C 0,6 C 1,7 C 99 % 1030,1 hPa 0,0 l/m 0 min 0 min 18 W/m 6,4 km/h (2 Bft) 95,74 %
15.01.2022 09:50 0,8 C 0,6 C 1,7 C 99 % 1030,1 hPa 0,0 l/m 0 min 0 min 18 W/m 12,9 km/h (3 Bft) 97,87 %
15.01.2022 09:52 0,8 C 0,6 C 1,7 C 99 % 1030,1 hPa 0,0 l/m 0 min 0 min 18 W/m 9,7 km/h (2 Bft) 97,87 %
15.01.2022 09:54 0,8 C 0,6 C 1,1 C 99 % 1030,1 hPa 0,0 l/m 0 min 0 min 21 W/m 16,1 km/h (3 Bft) 95,74 %
15.01.2022 09:56 0,8 C 0,6 C 1,1 C 99 % 1030,2 hPa 0,0 l/m 0 min 0 min 22 W/m 12,9 km/h (3 Bft) 97,87 %
15.01.2022 09:58 0,8 C 0,6 C 1,7 C 99 % 1030,2 hPa 0,0 l/m 0 min 0 min 21 W/m 12,9 km/h (3 Bft) 97,83 %
15.01.2022 10:00 0,8 C 0,6 C 1,7 C 99 % 1030,1 hPa 0,0 l/m 0 min 0 min 21 W/m 12,9 km/h (3 Bft) 97,87 %
15.01.2022 10:02 0,8 C 0,6 C 1,1 C 99 % 1030,1 hPa 0,0 l/m 0 min 0 min 24 W/m 12,9 km/h (3 Bft) 95,74 %
15.01.2022 10:04 0,8 C 0,6 C 1,1 C 99 % 1030,1 hPa 0,0 l/m 0 min 0 min 24 W/m 12,9 km/h (3 Bft) 97,87 %
15.01.2022 10:06 0,8 C 0,6 C 1,7 C 99 % 1030,1 hPa 0,0 l/m 0 min 0 min 25 W/m 12,9 km/h (3 Bft) 93,62 %
15.01.2022 10:08 0,8 C 0,6 C 1,7 C 99 % 1030,1 hPa 0,0 l/m 0 min 0 min 25 W/m 12,9 km/h (3 Bft) 97,83 %
15.01.2022 10:10 0,8 C 0,6 C 1,1 C 99 % 1030,2 hPa 0,0 l/m 0 min 0 min 29 W/m 19,3 km/h (3 Bft) 97,87 %
15.01.2022 10:12 0,8 C 0,6 C 1,1 C 99 % 1030,1 hPa 0,0 l/m 0 min 0 min 29 W/m 12,9 km/h (3 Bft) 97,87 %
15.01.2022 10:14 0,8 C 0,6 C 1,7 C 99 % 1030,2 hPa 0,0 l/m 0 min 0 min 28 W/m 12,9 km/h (3 Bft) 78,72 %
15.01.2022 10:16 0,8 C 0,6 C 1,1 C 99 % 1030,2 hPa 0,0 l/m 0 min 0 min 28 W/m 16,1 km/h (3 Bft) 65,12 %
15.01.2022 10:18 0,8 C 0,6 C 1,7 C 99 % 1030,1 hPa 0,0 l/m 0 min 0 min 28 W/m 12,9 km/h (3 Bft) 95,74 %
15.01.2022 10:20 0,8 C 0,6 C 1,7 C 100 % 1030,1 hPa 0,0 l/m 0 min 0 min 28 W/m 12,9 km/h (3 Bft) 97,83 %
15.01.2022 10:22 0,8 C 0,6 C 1,7 C 100 % 1030,1 hPa 0,0 l/m 0 min 0 min 28 W/m 6,4 km/h (2 Bft) 95,74 %
15.01.2022 10:24 0,9 C 0,6 C 1,7 C 100 % 1030,1 hPa 0,0 l/m 0 min 0 min 28 W/m 6,4 km/h (2 Bft) 95,74 %
15.01.2022 10:26 0,9 C 0,6 C 1,7 C 100 % 1030,0 hPa 0,0 l/m 0 min 0 min 28 W/m 16,1 km/h (3 Bft) 93,62 %
15.01.2022 10:28 0,9 C 0,6 C 1,7 C 100 % 1030,1 hPa 0,0 l/m 0 min 0 min 30 W/m 12,9 km/h (3 Bft) 97,87 %
15.01.2022 10:30 0,9 C 0,6 C 1,7 C 100 % 1030,1 hPa 0,0 l/m 0 min 0 min 32 W/m 19,3 km/h (3 Bft) 95,74 %
15.01.2022 10:32 0,9 C 0,6 C 1,7 C 100 % 1030,0 hPa 0,0 l/m 0 min 0 min 34 W/m 19,3 km/h (3 Bft) 95,65 %
15.01.2022 10:34 0,9 C 0,6 C 1,7 C 100 % 1030,0 hPa 0,0 l/m 0 min 0 min 36 W/m 12,9 km/h (3 Bft) 97,87 %
15.01.2022 10:36 0,9 C 0,6 C 1,7 C 100 % 1030,0 hPa 0,0 l/m 0 min 0 min 37 W/m 19,3 km/h (3 Bft) 97,87 %
15.01.2022 10:38 0,9 C 0,6 C 1,7 C 100 % 1029,9 hPa 0,0 l/m 0 min 0 min 36 W/m 12,9 km/h (3 Bft) 100,00 %
15.01.2022 10:40 0,9 C 0,6 C 1,7 C 100 % 1029,9 hPa 0,0 l/m 0 min 0 min 36 W/m 16,1 km/h (3 Bft) 96,00 %
15.01.2022 10:42 0,9 C 1,1 C 1,7 C 100 % 1030,0 hPa 0,0 l/m 0 min 0 min 35 W/m 12,9 km/h (3 Bft) 97,87 %
15.01.2022 10:44 1,0 C 1,1 C 1,7 C 100 % 1030,0 hPa 0,0 l/m 0 min 0 min 37 W/m 16,1 km/h (3 Bft) 97,83 %
15.01.2022 10:46 1,0 C 1,1 C 1,7 C 100 % 1029,9 hPa 0,0 l/m 0 min 0 min 38 W/m 12,9 km/h (3 Bft) 97,87 %
15.01.2022 10:48 1,1 C 1,1 C 1,7 C 100 % 1029,9 hPa 0,0 l/m 0 min 0 min 41 W/m 16,1 km/h (3 Bft) 97,87 %
15.01.2022 10:50 1,1 C 1,1 C 1,7 C 100 % 1029,9 hPa 0,0 l/m 0 min 0 min 39 W/m 19,3 km/h (3 Bft) 95,74 %
15.01.2022 10:52 1,1 C 1,1 C 1,7 C 100 % 1029,8 hPa 0,0 l/m 0 min 0 min 43 W/m 16,1 km/h (3 Bft) 97,30 %
15.01.2022 10:54 1,1 C 1,1 C 1,7 C 100 % 1029,8 hPa 0,0 l/m 0 min 0 min 41 W/m 16,1 km/h (3 Bft) 97,87 %
15.01.2022 10:56 1,1 C 1,1 C 1,7 C 100 % 1029,7 hPa 0,0 l/m 0 min 0 min 42 W/m 16,1 km/h (3 Bft) 97,83 %
15.01.2022 10:58 1,1 C 1,1 C 1,7 C 100 % 1029,7 hPa 0,0 l/m 0 min 0 min 46 W/m 12,9 km/h (3 Bft) 97,87 %
15.01.2022 11:00 1,1 C 1,1 C 1,7 C 100 % 1029,7 hPa 0,0 l/m 0 min 0 min 47 W/m 16,1 km/h (3 Bft) 95,74 %
15.01.2022 11:02 1,2 C 1,1 C 1,7 C 100 % 1029,6 hPa 0,0 l/m 0 min 0 min 48 W/m 16,1 km/h (3 Bft) 97,87 %
15.01.2022 11:04 1,2 C 1,1 C 1,7 C 100 % 1029,6 hPa 0,0 l/m 0 min 0 min 49 W/m 16,1 km/h (3 Bft) 95,74 %
15.01.2022 11:06 1,2 C 1,1 C 1,7 C 100 % 1029,6 hPa 0,0 l/m 0 min 0 min 52 W/m 16,1 km/h (3 Bft) 95,65 %
15.01.2022 11:08 1,2 C 1,1 C 1,7 C 100 % 1029,6 hPa 0,0 l/m 0 min 0 min 52 W/m 22,5 km/h (4 Bft) 95,74 %
15.01.2022 11:10 1,2 C 1,1 C 1,7 C 100 % 1029,7 hPa 0,0 l/m 0 min 0 min 50 W/m 12,9 km/h (3 Bft) 95,74 %
15.01.2022 11:12 1,2 C 1,1 C 1,7 C 100 % 1029,6 hPa 0,0 l/m 0 min 0 min 50 W/m 19,3 km/h (3 Bft) 95,74 %
15.01.2022 11:14 1,2 C 1,1 C 1,7 C 100 % 1029,6 hPa 0,0 l/m 0 min 0 min 50 W/m 19,3 km/h (3 Bft) 95,74 %
15.01.2022 11:16 1,3 C 1,1 C 1,7 C 100 % 1029,6 hPa 0,0 l/m 0 min 0 min 48 W/m 12,9 km/h (3 Bft) 95,74 %
15.01.2022 11:18 1,3 C 1,1 C 1,7 C 100 % 1029,5 hPa 0,0 l/m 0 min 0 min 48 W/m 19,3 km/h (3 Bft) 97,83 %
15.01.2022 11:20 1,3 C 1,1 C 1,7 C 100 % 1029,6 hPa 0,0 l/m 0 min 0 min 49 W/m 12,9 km/h (3 Bft) 97,87 %
15.01.2022 11:22 1,3 C 1,1 C 1,7 C 100 % 1029,6 hPa 0,0 l/m 0 min 0 min 47 W/m 16,1 km/h (3 Bft) 97,87 %
15.01.2022 11:24 1,3 C 1,1 C 1,7 C 100 % 1029,5 hPa 0,0 l/m 0 min 0 min 49 W/m 6,4 km/h (2 Bft) 97,87 %
15.01.2022 11:26 1,3 C 1,1 C 1,7 C 100 % 1029,6 hPa 0,0 l/m 0 min 0 min 49 W/m 12,9 km/h (3 Bft) 100,00 %
15.01.2022 11:28 1,4 C 1,1 C 2,2 C 100 % 1029,5 hPa 0,0 l/m 0 min 0 min 47 W/m 16,1 km/h (3 Bft) 97,87 %
15.01.2022 11:30 1,4 C 1,1 C 2,2 C 100 % 1029,6 hPa 0,0 l/m 0 min 0 min 47 W/m 12,9 km/h (3 Bft) 95,65 %
15.01.2022 11:32 1,4 C 1,1 C 2,2 C 100 % 1029,6 hPa 0,0 l/m 0 min 0 min 51 W/m 12,9 km/h (3 Bft) 97,87 %
15.01.2022 11:34 1,4 C 1,1 C 2,2 C 100 % 1029,6 hPa 0,0 l/m 0 min 0 min 51 W/m 16,1 km/h (3 Bft) 97,87 %
15.01.2022 11:36 1,4 C 1,1 C 2,2 C 100 % 1029,5 hPa 0,0 l/m 0 min 0 min 53 W/m 16,1 km/h (3 Bft) 97,87 %
15.01.2022 11:38 1,4 C 1,7 C 2,2 C 100 % 1029,5 hPa 0,0 l/m 0 min 0 min 54 W/m 12,9 km/h (3 Bft) 97,87 %
15.01.2022 11:40 1,4 C 1,7 C 2,2 C 100 % 1029,5 hPa 0,0 l/m 0 min 0 min 54 W/m 12,9 km/h (3 Bft) 95,74 %
15.01.2022 11:42 1,5 C 1,7 C 2,2 C 100 % 1029,5 hPa 0,0 l/m 0 min 0 min 56 W/m 12,9 km/h (3 Bft) 97,83 %
15.01.2022 11:44 1,5 C 1,7 C 2,2 C 100 % 1029,4 hPa 0,0 l/m 0 min 0 min 55 W/m 12,9 km/h (3 Bft) 100,00 %
15.01.2022 11:46 1,5 C 1,7 C 2,2 C 100 % 1029,4 hPa 0,0 l/m 0 min 0 min 54 W/m 19,3 km/h (3 Bft) 97,87 %
15.01.2022 11:48 1,6 C 1,7 C 2,2 C 100 % 1029,4 hPa 0,0 l/m 0 min 0 min 57 W/m 16,1 km/h (3 Bft) 100,00 %
15.01.2022 11:50 1,6 C 1,7 C 2,2 C 100 % 1029,4 hPa 0,0 l/m 0 min 0 min 58 W/m 16,1 km/h (3 Bft) 100,00 %
15.01.2022 11:52 1,6 C 1,7 C 2,2 C 100 % 1029,4 hPa 0,0 l/m 0 min 0 min 58 W/m 16,1 km/h (3 Bft) 100,00 %
15.01.2022 11:54 1,6 C 1,7 C 2,2 C 100 % 1029,4 hPa 0,0 l/m 0 min 0 min 57 W/m 12,9 km/h (3 Bft) 95,65 %
15.01.2022 11:56 1,6 C 1,7 C 2,2 C 100 % 1029,4 hPa 0,0 l/m 0 min 0 min 55 W/m 12,9 km/h (3 Bft) 97,87 %
15.01.2022 11:58 1,6 C 1,7 C 2,2 C 100 % 1029,4 hPa 0,0 l/m 0 min 0 min 54 W/m 12,9 km/h (3 Bft) 97,87 %
15.01.2022 12:00 1,7 C 1,7 C 2,2 C 100 % 1029,4 hPa 0,0 l/m 0 min 0 min 56 W/m 12,9 km/h (3 Bft) 100,00 %
15.01.2022 12:02 1,7 C 1,7 C 2,2 C 100 % 1029,4 hPa 0,0 l/m 0 min 0 min 55 W/m 9,7 km/h (2 Bft) 97,87 %
15.01.2022 12:04 1,7 C 1,7 C 2,2 C 100 % 1029,4 hPa 0,0 l/m 0 min 0 min 57 W/m 9,7 km/h (2 Bft) 100,00 %
15.01.2022 12:06 1,7 C 1,7 C 2,2 C 100 % 1029,4 hPa 0,0 l/m 0 min 0 min 58 W/m 16,1 km/h (3 Bft) 100,00 %
15.01.2022 12:08 1,7 C 1,7 C 2,2 C 100 % 1029,4 hPa 0,0 l/m 0 min 0 min 58 W/m 12,9 km/h (3 Bft) 100,00 %
15.01.2022 12:10 1,8 C 1,7 C 2,2 C 100 % 1029,4 hPa 0,0 l/m 0 min 0 min 58 W/m 6,4 km/h (2 Bft) 100,00 %
15.01.2022 12:12 1,8 C 1,7 C 2,2 C 100 % 1029,4 hPa 0,0 l/m 0 min 0 min 61 W/m 16,1 km/h (3 Bft) 100,00 %
15.01.2022 12:14 1,8 C 1,7 C 2,2 C 100 % 1029,3 hPa 0,0 l/m 0 min 0 min 58 W/m 12,9 km/h (3 Bft) 100,00 %
15.01.2022 12:16 1,8 C 1,7 C 2,2 C 100 % 1029,3 hPa 0,0 l/m 0 min 0 min 56 W/m 12,9 km/h (3 Bft) 97,83 %
15.01.2022 12:18 1,8 C 1,7 C 2,2 C 100 % 1029,3 hPa 0,0 l/m 0 min 0 min 55 W/m 9,7 km/h (2 Bft) 100,00 %
15.01.2022 12:20 1,8 C 1,7 C 2,2 C 100 % 1029,4 hPa 0,0 l/m 0 min 0 min 61 W/m 12,9 km/h (3 Bft) 100,00 %
15.01.2022 12:22 1,8 C 2,2 C 2,2 C 100 % 1029,4 hPa 0,0 l/m 0 min 0 min 63 W/m 12,9 km/h (3 Bft) 100,00 %
15.01.2022 12:24 1,9 C 2,2 C 2,2 C 100 % 1029,4 hPa 0,0 l/m 0 min 0 min 69 W/m 12,9 km/h (3 Bft) 97,87 %
15.01.2022 12:26 1,9 C 2,2 C 2,8 C 100 % 1029,4 hPa 0,0 l/m 0 min 0 min 65 W/m 6,4 km/h (2 Bft) 100,00 %
15.01.2022 12:28 1,9 C 2,2 C 2,8 C 100 % 1029,3 hPa 0,0 l/m 0 min 0 min 61 W/m 12,9 km/h (3 Bft) 100,00 %
15.01.2022 12:30 1,9 C 2,2 C 2,8 C 100 % 1029,3 hPa 0,0 l/m 0 min 0 min 60 W/m 6,4 km/h (2 Bft) 100,00 %
15.01.2022 12:32 2,0 C 2,2 C 2,8 C 100 % 1029,3 hPa 0,0 l/m 0 min 0 min 62 W/m 12,9 km/h (3 Bft) 100,00 %
15.01.2022 12:34 2,0 C 2,2 C 2,8 C 100 % 1029,2 hPa 0,0 l/m 0 min 0 min 63 W/m 16,1 km/h (3 Bft) 100,00 %
15.01.2022 12:36 2,0 C 2,2 C 2,8 C 100 % 1029,2 hPa 0,0 l/m 0 min 0 min 62 W/m 12,9 km/h (3 Bft) 100,00 %
15.01.2022 12:38 2,1 C 2,2 C 2,8 C 100 % 1029,2 hPa 0,0 l/m 0 min 0 min 64 W/m 12,9 km/h (3 Bft) 100,00 %
15.01.2022 12:40 2,1 C 2,2 C 2,8 C 100 % 1029,2 hPa 0,0 l/m 0 min 0 min 64 W/m 16,1 km/h (3 Bft) 100,00 %
15.01.2022 12:42 2,1 C 2,2 C 2,8 C 100 % 1029,2 hPa 0,0 l/m 0 min 0 min 60 W/m 9,7 km/h (2 Bft) 97,87 %
15.01.2022 12:44 2,1 C 2,2 C 2,8 C 100 % 1029,2 hPa 0,0 l/m 0 min 0 min 61 W/m 6,4 km/h (2 Bft) 97,87 %
15.01.2022 12:46 2,1 C 2,2 C 2,8 C 100 % 1029,1 hPa 0,0 l/m 0 min 0 min 60 W/m 12,9 km/h (3 Bft) 97,87 %
15.01.2022 12:48 2,1 C 2,2 C 2,8 C 100 % 1029,1 hPa 0,0 l/m 0 min 0 min 60 W/m 16,1 km/h (3 Bft) 97,87 %
15.01.2022 12:50 2,1 C 2,2 C 2,8 C 100 % 1029,1 hPa 0,0 l/m 0 min 0 min 59 W/m 12,9 km/h (3 Bft) 95,74 %
15.01.2022 12:52 2,1 C 2,2 C 2,8 C 100 % 1029,1 hPa 0,0 l/m 0 min 0 min 62 W/m 12,9 km/h (3 Bft) 97,83 %
15.01.2022 12:54 2,1 C 2,2 C 2,8 C 100 % 1029,1 hPa 0,0 l/m 0 min 0 min 64 W/m 16,1 km/h (3 Bft) 97,87 %
15.01.2022 12:56 2,1 C 2,2 C 2,8 C 100 % 1029,1 hPa 0,0 l/m 0 min 0 min 64 W/m 12,9 km/h (3 Bft) 97,87 %
15.01.2022 12:58 2,2 C 2,2 C 2,8 C 100 % 1029,0 hPa 0,0 l/m 0 min 0 min 64 W/m 12,9 km/h (3 Bft) 95,74 %
15.01.2022 13:00 2,2 C 2,2 C 2,8 C 100 % 1029,0 hPa 0,0 l/m 0 min 0 min 65 W/m 12,9 km/h (3 Bft) 95,74 %
15.01.2022 13:02 2,2 C 2,2 C 2,8 C 100 % 1028,9 hPa 0,0 l/m 0 min 0 min 65 W/m 12,9 km/h (3 Bft) 95,74 %
15.01.2022 13:04 2,2 C 2,2 C 2,8 C 100 % 1028,9 hPa 0,0 l/m 0 min 0 min 65 W/m 16,1 km/h (3 Bft) 95,65 %
15.01.2022 13:06 2,2 C 2,2 C 2,8 C 100 % 1028,9 hPa 0,0 l/m 0 min 0 min 63 W/m 16,1 km/h (3 Bft) 97,87 %
15.01.2022 13:08 2,2 C 2,2 C 2,8 C 100 % 1028,9 hPa 0,0 l/m 0 min 0 min 63 W/m 16,1 km/h (3 Bft) 93,62 %
15.01.2022 13:10 2,2 C 2,2 C 2,8 C 100 % 1028,8 hPa 0,0 l/m 0 min 0 min 66 W/m 12,9 km/h (3 Bft) 93,62 %
15.01.2022 13:12 2,2 C 2,2 C 2,8 C 100 % 1028,8 hPa 0,0 l/m 0 min 0 min 66 W/m 12,9 km/h (3 Bft) 93,62 %
15.01.2022 13:14 2,2 C 2,2 C 2,8 C 100 % 1028,7 hPa 0,0 l/m 0 min 0 min 65 W/m 12,9 km/h (3 Bft) 93,62 %
15.01.2022 13:16 2,3 C 2,2 C 2,8 C 100 % 1028,7 hPa 0,0 l/m 0 min 0 min 64 W/m 12,9 km/h (3 Bft) 91,30 %
15.01.2022 13:18 2,3 C 2,2 C 2,8 C 100 % 1028,7 hPa 0,0 l/m 0 min 0 min 62 W/m 6,4 km/h (2 Bft) 93,62 %
15.01.2022 13:20 2,3 C 2,2 C 2,8 C 100 % 1028,6 hPa 0,0 l/m 0 min 0 min 63 W/m 12,9 km/h (3 Bft) 91,49 %
15.01.2022 13:22 2,3 C 2,2 C 2,8 C 100 % 1028,6 hPa 0,0 l/m 0 min 0 min 64 W/m 19,3 km/h (3 Bft) 93,62 %
15.01.2022 13:24 2,3 C 2,2 C 2,8 C 100 % 1028,5 hPa 0,0 l/m 0 min 0 min 70 W/m 19,3 km/h (3 Bft) 93,62 %
15.01.2022 13:26 2,3 C 2,2 C 2,8 C 100 % 1028,4 hPa 0,0 l/m 0 min 0 min 72 W/m 16,1 km/h (3 Bft) 93,62 %
15.01.2022 13:28 2,3 C 2,2 C 2,8 C 100 % 1028,3 hPa 0,0 l/m 0 min 0 min 69 W/m 19,3 km/h (3 Bft) 93,48 %
15.01.2022 13:30 2,3 C 2,2 C 2,8 C 100 % 1028,3 hPa 0,0 l/m 0 min 0 min 67 W/m 19,3 km/h (3 Bft) 93,62 %
15.01.2022 13:32 2,3 C 2,2 C 2,8 C 100 % 1028,3 hPa 0,0 l/m 0 min 0 min 66 W/m 16,1 km/h (3 Bft) 93,62 %
15.01.2022 13:34 2,3 C 2,2 C 2,8 C 100 % 1028,2 hPa 0,0 l/m 0 min 0 min 70 W/m 12,9 km/h (3 Bft) 95,74 %
15.01.2022 13:36 2,3 C 2,2 C 2,8 C 100 % 1028,2 hPa 0,0 l/m 0 min 0 min 70 W/m 12,9 km/h (3 Bft) 95,74 %
15.01.2022 13:38 2,3 C 2,2 C 2,8 C 100 % 1028,1 hPa 0,0 l/m 0 min 0 min 68 W/m 19,3 km/h (3 Bft) 95,74 %
15.01.2022 13:40 2,3 C 2,2 C 2,8 C 100 % 1028,1 hPa 0,0 l/m 0 min 0 min 64 W/m 12,9 km/h (3 Bft) 95,65 %
15.01.2022 13:42 2,3 C 2,2 C 2,8 C 100 % 1028,0 hPa 0,0 l/m 0 min 0 min 63 W/m 12,9 km/h (3 Bft) 91,49 %
15.01.2022 13:44 2,4 C 2,2 C 2,8 C 100 % 1028,0 hPa 0,0 l/m 0 min 0 min 61 W/m 16,1 km/h (3 Bft) 95,74 %
15.01.2022 13:46 2,4 C 2,2 C 2,8 C 100 % 1028,0 hPa 0,0 l/m 0 min 0 min 61 W/m 16,1 km/h (3 Bft) 97,87 %
15.01.2022 13:48 2,4 C 2,2 C 2,8 C 100 % 1028,1 hPa 0,0 l/m 0 min 0 min 59 W/m 19,3 km/h (3 Bft) 97,87 %
15.01.2022 13:50 2,4 C 2,2 C 2,8 C 100 % 1028,0 hPa 0,0 l/m 0 min 0 min 60 W/m 12,9 km/h (3 Bft) 97,83 %
15.01.2022 13:52 2,4 C 2,2 C 2,8 C 100 % 1028,0 hPa 0,0 l/m 0 min 0 min 61 W/m 12,9 km/h (3 Bft) 100,00 %
15.01.2022 13:54 2,4 C 2,2 C 2,8 C 100 % 1028,0 hPa 0,0 l/m 0 min 0 min 62 W/m 16,1 km/h (3 Bft) 95,74 %
15.01.2022 13:56 2,4 C 2,2 C 2,8 C 100 % 1028,0 hPa 0,0 l/m 0 min 0 min 60 W/m 16,1 km/h (3 Bft) 100,00 %
15.01.2022 13:58 2,4 C 2,2 C 2,8 C 100 % 1027,9 hPa 0,0 l/m 0 min 0 min 62 W/m 19,3 km/h (3 Bft) 100,00 %
15.01.2022 14:00 2,4 C 2,2 C 2,8 C 100 % 1027,9 hPa 0,0 l/m 0 min 0 min 60 W/m 19,3 km/h (3 Bft) 97,87 %
15.01.2022 14:02 2,4 C 2,2 C 2,8 C 100 % 1027,9 hPa 0,0 l/m 0 min 0 min 58 W/m 12,9 km/h (3 Bft) 100,00 %
15.01.2022 14:04 2,4 C 2,2 C 2,8 C 100 % 1027,9 hPa 0,0 l/m 0 min 0 min 59 W/m 12,9 km/h (3 Bft) 100,00 %
15.01.2022 14:06 2,4 C 2,8 C 2,8 C 100 % 1028,0 hPa 0,0 l/m 0 min 0 min 60 W/m 16,1 km/h (3 Bft) 100,00 %
15.01.2022 14:08 2,4 C 2,8 C 2,8 C 100 % 1027,9 hPa 0,0 l/m 0 min 0 min 57 W/m 12,9 km/h (3 Bft) 100,00 %
15.01.2022 14:10 2,4 C 2,8 C 2,8 C 100 % 1027,9 hPa 0,0 l/m 0 min 0 min 55 W/m 12,9 km/h (3 Bft) 100,00 %
15.01.2022 14:12 2,5 C 2,8 C 2,8 C 100 % 1027,9 hPa 0,0 l/m 0 min 0 min 56 W/m 12,9 km/h (3 Bft) 100,00 %
15.01.2022 14:14 2,5 C 2,2 C 2,8 C 100 % 1027,9 hPa 0,0 l/m 0 min 0 min 53 W/m 16,1 km/h (3 Bft) 100,00 %
15.01.2022 14:16 2,5 C 2,2 C 2,8 C 100 % 1027,9 hPa 0,0 l/m 0 min 0 min 52 W/m 16,1 km/h (3 Bft) 100,00 %
15.01.2022 14:18 2,5 C 2,2 C 2,8 C 100 % 1027,9 hPa 0,0 l/m 0 min 0 min 53 W/m 12,9 km/h (3 Bft) 97,87 %
15.01.2022 14:20 2,5 C 2,8 C 2,8 C 100 % 1027,8 hPa 0,0 l/m 0 min 0 min 52 W/m 9,7 km/h (2 Bft) 100,00 %
15.01.2022 14:22 2,5 C 2,8 C 2,8 C 100 % 1027,8 hPa 0,0 l/m 0 min 0 min 49 W/m 12,9 km/h (3 Bft) 100,00 %
15.01.2022 14:24 2,5 C 2,8 C 2,8 C 100 % 1027,7 hPa 0,0 l/m 0 min 0 min 50 W/m 9,7 km/h (2 Bft) 100,00 %
15.01.2022 14:26 2,6 C 2,8 C 2,8 C 100 % 1027,7 hPa 0,0 l/m 0 min 0 min 51 W/m 16,1 km/h (3 Bft) 100,00 %
15.01.2022 14:28 2,6 C 2,8 C 2,8 C 100 % 1027,7 hPa 0,0 l/m 0 min 0 min 48 W/m 6,4 km/h (2 Bft) 100,00 %
15.01.2022 14:30 2,6 C 2,8 C 2,8 C 100 % 1027,7 hPa 0,0 l/m 0 min 0 min 47 W/m 12,9 km/h (3 Bft) 100,00 %
15.01.2022 14:32 2,6 C 2,8 C 2,8 C 100 % 1027,7 hPa 0,0 l/m 0 min 0 min 46 W/m 16,1 km/h (3 Bft) 100,00 %
15.01.2022 14:34 2,6 C 2,8 C 2,8 C 100 % 1027,7 hPa 0,0 l/m 0 min 0 min 44 W/m 16,1 km/h (3 Bft) 100,00 %
15.01.2022 14:36 2,6 C 2,8 C 2,8 C 100 % 1027,6 hPa 0,0 l/m 0 min 0 min 44 W/m 12,9 km/h (3 Bft) 100,00 %
15.01.2022 14:38 2,6 C 2,8 C 2,8 C 100 % 1027,6 hPa 0,0 l/m 0 min 0 min 45 W/m 12,9 km/h (3 Bft) 100,00 %
15.01.2022 14:40 2,6 C 2,8 C 2,8 C 100 % 1027,6 hPa 0,0 l/m 0 min 0 min 46 W/m 12,9 km/h (3 Bft) 97,87 %
15.01.2022 14:42 2,6 C 2,8 C 2,8 C 100 % 1027,5 hPa 0,0 l/m 0 min 0 min 44 W/m 22,5 km/h (4 Bft) 100,00 %
15.01.2022 14:44 2,6 C 2,8 C 2,8 C 100 % 1027,6 hPa 0,0 l/m 0 min 0 min 41 W/m 12,9 km/h (3 Bft) 100,00 %
15.01.2022 14:46 2,6 C 2,8 C 2,8 C 100 % 1027,6 hPa 0,0 l/m 0 min 0 min 40 W/m 12,9 km/h (3 Bft) 100,00 %
15.01.2022 14:48 2,6 C 2,8 C 2,8 C 100 % 1027,5 hPa 0,0 l/m 0 min 0 min 39 W/m 12,9 km/h (3 Bft) 100,00 %
15.01.2022 14:50 2,6 C 2,8 C 2,8 C 100 % 1027,4 hPa 0,0 l/m 0 min 0 min 40 W/m 16,1 km/h (3 Bft) 100,00 %
15.01.2022 14:52 2,6 C 2,8 C 2,8 C 100 % 1027,4 hPa 0,0 l/m 0 min 0 min 40 W/m 16,1 km/h (3 Bft) 100,00 %
15.01.2022 14:54 2,6 C 2,2 C 2,8 C 100 % 1027,3 hPa 0,0 l/m 0 min 0 min 39 W/m 16,1 km/h (3 Bft) 100,00 %
15.01.2022 14:56 2,6 C 2,2 C 2,8 C 100 % 1027,3 hPa 0,0 l/m 0 min 0 min 36 W/m 16,1 km/h (3 Bft) 100,00 %
15.01.2022 14:58 2,6 C 2,2 C 2,8 C 100 % 1027,3 hPa 0,0 l/m 0 min 0 min 37 W/m 12,9 km/h (3 Bft) 100,00 %
15.01.2022 15:00 2,6 C 2,2 C 2,8 C 100 % 1027,3 hPa 0,0 l/m 0 min 0 min 35 W/m 16,1 km/h (3 Bft) 100,00 %
15.01.2022 15:02 2,6 C 2,2 C 2,8 C 100 % 1027,3 hPa 0,0 l/m 0 min 0 min 34 W/m 19,3 km/h (3 Bft) 97,87 %
15.01.2022 15:04 2,6 C 2,2 C 2,8 C 100 % 1027,3 hPa 0,0 l/m 0 min 0 min 34 W/m 12,9 km/h (3 Bft) 97,87 %
15.01.2022 15:06 2,6 C 2,8 C 2,8 C 100 % 1027,3 hPa 0,0 l/m 0 min 0 min 33 W/m 12,9 km/h (3 Bft) 97,87 %
15.01.2022 15:08 2,6 C 2,8 C 2,8 C 100 % 1027,3 hPa 0,0 l/m 0 min 0 min 33 W/m 6,4 km/h (2 Bft) 100,00 %
15.01.2022 15:10 2,6 C 2,8 C 2,8 C 100 % 1027,2 hPa 0,0 l/m 0 min 0 min 31 W/m 6,4 km/h (2 Bft) 95,74 %
15.01.2022 15:12 2,6 C 2,8 C 2,8 C 100 % 1027,3 hPa 0,0 l/m 0 min 0 min 30 W/m 12,9 km/h (3 Bft) 97,83 %
15.01.2022 15:14 2,7 C 2,8 C 2,8 C 100 % 1027,2 hPa 0,0 l/m 0 min 0 min 29 W/m 19,3 km/h (3 Bft) 95,74 %
15.01.2022 15:16 2,7 C 2,8 C 2,8 C 100 % 1027,2 hPa 0,0 l/m 0 min 0 min 29 W/m 12,9 km/h (3 Bft) 95,74 %
15.01.2022 15:18 2,7 C 2,8 C 2,8 C 100 % 1027,2 hPa 0,0 l/m 0 min 0 min 27 W/m 12,9 km/h (3 Bft) 97,87 %
15.01.2022 15:20 2,7 C 2,8 C 2,8 C 100 % 1027,2 hPa 0,0 l/m 0 min 0 min 27 W/m 19,3 km/h (3 Bft) 95,74 %
15.01.2022 15:22 2,7 C 2,8 C 2,8 C 100 % 1027,2 hPa 0,0 l/m 0 min 0 min 26 W/m 12,9 km/h (3 Bft) 97,87 %
15.01.2022 15:24 2,7 C 2,8 C 2,8 C 100 % 1027,1 hPa 0,0 l/m 0 min 0 min 26 W/m 12,9 km/h (3 Bft) 97,83 %
15.01.2022 15:26 2,7 C 2,8 C 2,8 C 100 % 1027,2 hPa 0,0 l/m 0 min 0 min 26 W/m 12,9 km/h (3 Bft) 95,74 %
15.01.2022 15:28 2,7 C 2,2 C 2,8 C 100 % 1027,1 hPa 0,0 l/m 0 min 0 min 25 W/m 12,9 km/h (3 Bft) 97,87 %
15.01.2022 15:30 2,7 C 2,8 C 2,8 C 100 % 1027,1 hPa 0,0 l/m 0 min 0 min 24 W/m 16,1 km/h (3 Bft) 95,74 %
15.01.2022 15:32 2,7 C 2,8 C 2,8 C 100 % 1027,1 hPa 0,0 l/m 0 min 0 min 25 W/m 12,9 km/h (3 Bft) 95,74 %
15.01.2022 15:34 2,7 C 2,8 C 2,8 C 100 % 1027,0 hPa 0,0 l/m 0 min 0 min 25 W/m 12,9 km/h (3 Bft) 93,62 %
15.01.2022 15:36 2,7 C 2,8 C 2,8 C 100 % 1027,0 hPa 0,0 l/m 0 min 0 min 23 W/m 16,1 km/h (3 Bft) 95,65 %
15.01.2022 15:38 2,7 C 2,8 C 2,8 C 100 % 1027,1 hPa 0,0 l/m 0 min 0 min 21 W/m 9,7 km/h (2 Bft) 93,62 %
15.01.2022 15:42 2,7 C 2,8 C 2,8 C 100 % 1027,0 hPa 0,0 l/m 0 min 0 min 21 W/m 6,4 km/h (2 Bft) 93,02 %
15.01.2022 15:44 2,7 C 2,8 C 2,8 C 100 % 1026,9 hPa 0,0 l/m 0 min 0 min 21 W/m 6,4 km/h (2 Bft) 95,74 %
15.01.2022 15:46 2,7 C 2,8 C 2,8 C 100 % 1026,9 hPa 0,0 l/m 0 min 0 min 21 W/m 6,4 km/h (2 Bft) 95,74 %
15.01.2022 15:48 2,7 C 2,8 C 2,8 C 100 % 1026,9 hPa 0,0 l/m 0 min 0 min 19 W/m 6,4 km/h (2 Bft) 93,62 %
15.01.2022 15:50 2,8 C 2,8 C 2,8 C 100 % 1026,9 hPa 0,0 l/m 0 min 0 min 16 W/m 12,9 km/h (3 Bft) 93,48 %
15.01.2022 15:52 2,7 C 2,8 C 2,8 C 100 % 1027,0 hPa 0,0 l/m 0 min 0 min 14 W/m 6,4 km/h (2 Bft) 93,62 %
15.01.2022 15:54 2,8 C 2,8 C 2,8 C 100 % 1027,0 hPa 0,0 l/m 0 min 0 min 10 W/m 3,2 km/h (1 Bft) 97,87 %
15.01.2022 15:56 2,8 C 2,8 C 2,8 C 100 % 1026,9 hPa 0,0 l/m 0 min 0 min 9 W/m 6,4 km/h (2 Bft) 95,74 %
15.01.2022 15:58 2,8 C 2,8 C 2,8 C 100 % 1027,0 hPa 0,0 l/m 0 min 0 min 9 W/m 12,9 km/h (3 Bft) 93,62 %
15.01.2022 16:00 2,8 C 2,8 C 2,8 C 100 % 1026,9 hPa 0,0 l/m 0 min 0 min 8 W/m 6,4 km/h (2 Bft) 93,62 %
15.01.2022 16:02 2,8 C 2,2 C 2,8 C 100 % 1026,9 hPa 0,0 l/m 0 min 0 min 7 W/m 6,4 km/h (2 Bft) 95,74 %
15.01.2022 16:04 2,8 C 2,8 C 2,8 C 100 % 1026,9 hPa 0,0 l/m 0 min 0 min 7 W/m 6,4 km/h (2 Bft) 95,74 %
15.01.2022 16:06 2,8 C 2,2 C 2,8 C 100 % 1026,9 hPa 0,0 l/m 0 min 0 min 7 W/m 12,9 km/h (3 Bft) 93,62 %
15.01.2022 16:08 2,8 C 2,2 C 2,8 C 100 % 1026,8 hPa 0,0 l/m 0 min 0 min 8 W/m 6,4 km/h (2 Bft) 95,74 %
15.01.2022 16:10 2,8 C 2,2 C 2,8 C 100 % 1026,8 hPa 0,0 l/m 0 min 0 min 9 W/m 12,9 km/h (3 Bft) 95,74 %
15.01.2022 16:12 2,8 C 2,2 C 2,8 C 100 % 1026,8 hPa 0,0 l/m 0 min 0 min 6 W/m 6,4 km/h (2 Bft) 91,49 %
15.01.2022 16:14 2,8 C 2,2 C 2,8 C 100 % 1026,8 hPa 0,0 l/m 0 min 0 min 5 W/m 6,4 km/h (2 Bft) 95,65 %
15.01.2022 16:16 2,8 C 2,2 C 2,8 C 100 % 1026,7 hPa 0,0 l/m 0 min 0 min 5 W/m 9,7 km/h (2 Bft) 91,49 %
15.01.2022 16:18 2,8 C 2,2 C 2,8 C 100 % 1026,8 hPa 0,0 l/m 0 min 0 min 7 W/m 12,9 km/h (3 Bft) 95,74 %
15.01.2022 16:20 2,8 C 2,2 C 2,8 C 100 % 1026,8 hPa 0,0 l/m 0 min 0 min 5 W/m 9,7 km/h (2 Bft) 95,74 %
15.01.2022 16:22 2,8 C 2,2 C 2,8 C 100 % 1026,7 hPa 0,0 l/m 0 min 0 min 5 W/m 6,4 km/h (2 Bft) 97,87 %
15.01.2022 16:24 2,8 C 2,2 C 2,8 C 100 % 1026,8 hPa 0,0 l/m 0 min 0 min 5 W/m 9,7 km/h (2 Bft) 97,87 %
15.01.2022 16:26 2,8 C 2,2 C 2,8 C 100 % 1026,9 hPa 0,0 l/m 0 min 0 min 5 W/m 6,4 km/h (2 Bft) 97,83 %
15.01.2022 16:28 2,8 C 2,2 C 2,8 C 100 % 1026,8 hPa 0,0 l/m 0 min 0 min 4 W/m 6,4 km/h (2 Bft) 100,00 %
15.01.2022 16:30 2,8 C 2,2 C 2,8 C 100 % 1026,8 hPa 0,0 l/m 0 min 0 min 0 W/m 6,4 km/h (2 Bft) 95,74 %
15.01.2022 16:32 2,8 C 2,2 C 2,8 C 100 % 1026,8 hPa 0,0 l/m 0 min 0 min 0 W/m 6,4 km/h (2 Bft) 100,00 %
15.01.2022 16:34 2,8 C 2,2 C 2,8 C 100 % 1026,7 hPa 0,0 l/m 0 min 0 min 0 W/m 6,4 km/h (2 Bft) 100,00 %
15.01.2022 16:36 2,7 C 2,2 C 2,8 C 100 % 1026,7 hPa 0,0 l/m 0 min 0 min 0 W/m 6,4 km/h (2 Bft) 97,87 %
15.01.2022 16:38 2,7 C 2,2 C 2,8 C 100 % 1026,8 hPa 0,0 l/m 0 min 0 min 0 W/m 6,4 km/h (2 Bft) 44,12 %
15.01.2022 16:40 2,7 C 2,2 C 2,8 C 100 % 1026,7 hPa 0,0 l/m 0 min 0 min 0 W/m 6,4 km/h (2 Bft) 97,87 %
15.01.2022 16:42 2,7 C 2,2 C 2,8 C 100 % 1026,7 hPa 0,0 l/m 0 min 0 min 0 W/m 6,4 km/h (2 Bft) 97,87 %
15.01.2022 16:44 2,7 C 2,2 C 2,8 C 100 % 1026,7 hPa 0,0 l/m 0 min 0 min 0 W/m 12,9 km/h (3 Bft) 100,00 %
15.01.2022 16:46 2,7 C 2,2 C 2,8 C 100 % 1026,8 hPa 0,0 l/m 0 min 0 min 0 W/m 12,9 km/h (3 Bft) 100,00 %
15.01.2022 16:48 2,7 C 2,2 C 2,8 C 100 % 1026,7 hPa 0,0 l/m 0 min 0 min 0 W/m 12,9 km/h (3 Bft) 100,00 %
15.01.2022 16:50 2,7 C 2,2 C 2,8 C 100 % 1026,7 hPa 0,0 l/m 0 min 0 min 0 W/m 12,9 km/h (3 Bft) 100,00 %
15.01.2022 16:52 2,7 C 2,2 C 2,8 C 100 % 1026,7 hPa 0,0 l/m 0 min 0 min 0 W/m 9,7 km/h (2 Bft) 100,00 %
15.01.2022 16:54 2,7 C 2,2 C 2,8 C 100 % 1026,7 hPa 0,0 l/m 0 min 0 min 0 W/m 9,7 km/h (2 Bft) 100,00 %
15.01.2022 16:56 2,7 C 2,2 C 2,8 C 99 % 1026,7 hPa 0,0 l/m 0 min 0 min 0 W/m 16,1 km/h (3 Bft) 100,00 %
15.01.2022 16:58 2,7 C 2,2 C 2,8 C 99 % 1026,7 hPa 0,0 l/m 0 min 0 min 0 W/m 12,9 km/h (3 Bft) 97,87 %
15.01.2022 17:00 2,7 C 2,2 C 2,8 C 99 % 1026,7 hPa 0,0 l/m 0 min 0 min 0 W/m 16,1 km/h (3 Bft) 100,00 %
15.01.2022 17:02 2,7 C 2,2 C 2,8 C 99 % 1026,7 hPa 0,0 l/m 0 min 0 min 0 W/m 12,9 km/h (3 Bft) 100,00 %
15.01.2022 17:04 2,7 C 2,2 C 2,8 C 99 % 1026,7 hPa 0,0 l/m 0 min 0 min 0 W/m 12,9 km/h (3 Bft) 97,87 %
15.01.2022 17:06 2,6 C 2,2 C 2,8 C 99 % 1026,7 hPa 0,0 l/m 0 min 0 min 0 W/m 12,9 km/h (3 Bft) 97,87 %
15.01.2022 17:08 2,6 C 2,2 C 2,8 C 99 % 1026,7 hPa 0,0 l/m 0 min 0 min 0 W/m 12,9 km/h (3 Bft) 95,74 %
15.01.2022 17:10 2,6 C 2,2 C 2,8 C 99 % 1026,7 hPa 0,0 l/m 0 min 0 min 0 W/m 16,1 km/h (3 Bft) 97,87 %
15.01.2022 17:12 2,6 C 2,2 C 2,8 C 99 % 1026,7 hPa 0,0 l/m 0 min 0 min 0 W/m 6,4 km/h (2 Bft) 97,83 %
15.01.2022 17:14 2,6 C 2,2 C 2,8 C 99 % 1026,7 hPa 0,0 l/m 0 min 0 min 0 W/m 16,1 km/h (3 Bft) 95,74 %
15.01.2022 17:16 2,6 C 2,2 C 2,8 C 99 % 1026,7 hPa 0,0 l/m 0 min 0 min 0 W/m 6,4 km/h (2 Bft) 97,87 %
15.01.2022 17:18 2,6 C 2,2 C 2,8 C 99 % 1026,7 hPa 0,0 l/m 0 min 0 min 0 W/m 12,9 km/h (3 Bft) 97,87 %
15.01.2022 17:20 2,6 C 2,2 C 2,8 C 99 % 1026,7 hPa 0,0 l/m 0 min 0 min 0 W/m 12,9 km/h (3 Bft) 97,87 %
15.01.2022 17:22 2,6 C 2,2 C 2,8 C 99 % 1026,7 hPa 0,0 l/m 0 min 0 min 0 W/m 16,1 km/h (3 Bft) 95,74 %
15.01.2022 17:24 2,6 C 2,2 C 2,8 C 99 % 1026,7 hPa 0,0 l/m 0 min 0 min 0 W/m 6,4 km/h (2 Bft) 97,83 %
15.01.2022 17:26 2,6 C 2,2 C 2,8 C 99 % 1026,7 hPa 0,0 l/m 0 min 0 min 0 W/m 12,9 km/h (3 Bft) 97,87 %
15.01.2022 17:28 2,6 C 2,2 C 2,8 C 99 % 1026,7 hPa 0,0 l/m 0 min 0 min 0 W/m 6,4 km/h (2 Bft) 97,87 %
15.01.2022 17:30 2,6 C 2,2 C 2,8 C 99 % 1026,7 hPa 0,0 l/m 0 min 0 min 0 W/m 9,7 km/h (2 Bft) 95,74 %
15.01.2022 17:32 2,5 C 2,2 C 2,8 C 99 % 1026,7 hPa 0,0 l/m 0 min 0 min 0 W/m 16,1 km/h (3 Bft) 93,62 %
15.01.2022 17:34 2,6 C 2,2 C 2,8 C 99 % 1026,7 hPa 0,0 l/m 0 min 0 min 0 W/m 12,9 km/h (3 Bft) 95,74 %
15.01.2022 17:36 2,5 C 2,2 C 2,8 C 99 % 1026,7 hPa 0,0 l/m 0 min 0 min 0 W/m 12,9 km/h (3 Bft) 97,83 %
15.01.2022 17:38 2,5 C 2,2 C 2,2 C 99 % 1026,7 hPa 0,0 l/m 0 min 0 min 0 W/m 12,9 km/h (3 Bft) 100,00 %
15.01.2022 17:40 2,5 C 2,2 C 2,2 C 99 % 1026,7 hPa 0,0 l/m 0 min 0 min 0 W/m 12,9 km/h (3 Bft) 100,00 %
15.01.2022 17:42 2,5 C 2,2 C 2,2 C 99 % 1026,6 hPa 0,0 l/m 0 min 0 min 0 W/m 16,1 km/h (3 Bft) 100,00 %
15.01.2022 17:44 2,5 C 2,2 C 2,8 C 99 % 1026,5 hPa 0,0 l/m 0 min 0 min 0 W/m 6,4 km/h (2 Bft) 97,87 %
15.01.2022 17:46 2,5 C 2,2 C 2,2 C 99 % 1026,6 hPa 0,0 l/m 0 min 0 min 0 W/m 6,4 km/h (2 Bft) 100,00 %
15.01.2022 17:48 2,5 C 2,2 C 2,2 C 99 % 1026,5 hPa 0,0 l/m 0 min 0 min 0 W/m 12,9 km/h (3 Bft) 100,00 %
15.01.2022 17:50 2,5 C 2,2 C 2,2 C 99 % 1026,6 hPa 0,0 l/m 0 min 0 min 0 W/m 12,9 km/h (3 Bft) 100,00 %
15.01.2022 17:52 2,5 C 2,2 C 2,2 C 99 % 1026,5 hPa 0,0 l/m 0 min 0 min 0 W/m 6,4 km/h (2 Bft) 97,87 %
15.01.2022 17:54 2,4 C 2,2 C 2,2 C 99 % 1026,5 hPa 0,0 l/m 0 min 0 min 0 W/m 12,9 km/h (3 Bft) 97,87 %
15.01.2022 17:56 2,5 C 2,2 C 2,2 C 99 % 1026,5 hPa 0,0 l/m 0 min 0 min 0 W/m 6,4 km/h (2 Bft) 100,00 %
15.01.2022 17:58 2,5 C 2,2 C 2,2 C 99 % 1026,6 hPa 0,0 l/m 0 min 0 min 0 W/m 3,2 km/h (1 Bft) 100,00 %
15.01.2022 18:00 2,5 C 2,2 C 2,8 C 99 % 1026,5 hPa 0,0 l/m 0 min 0 min 0 W/m 3,2 km/h (1 Bft) 100,00 %
15.01.2022 18:02 2,5 C 2,2 C 2,8 C 99 % 1026,5 hPa 0,0 l/m 0 min 0 min 0 W/m 6,4 km/h (2 Bft) 95,74 %
15.01.2022 18:04 2,5 C 2,2 C 2,2 C 99 % 1026,5 hPa 0,0 l/m 0 min 0 min 0 W/m 12,9 km/h (3 Bft) 100,00 %
15.01.2022 18:08 2,4 C 2,2 C 2,2 C 99 % 1026,4 hPa 0,0 l/m 0 min 0 min 0 W/m 12,9 km/h (3 Bft) 98,95 %
15.01.2022 18:10 2,4 C 2,2 C 2,2 C 99 % 1026,4 hPa 0,0 l/m 0 min 0 min 0 W/m 16,1 km/h (3 Bft) 97,83 %
15.01.2022 18:12 2,4 C 2,2 C 2,2 C 99 % 1026,4 hPa 0,0 l/m 0 min 0 min 0 W/m 16,1 km/h (3 Bft) 97,87 %
15.01.2022 18:14 2,4 C 2,2 C 2,2 C 99 % 1026,4 hPa 0,0 l/m 0 min 0 min 0 W/m 16,1 km/h (3 Bft) 95,74 %
15.01.2022 18:16 2,4 C 2,2 C 2,2 C 99 % 1026,4 hPa 0,0 l/m 0 min 0 min 0 W/m 16,1 km/h (3 Bft) 97,87 %
15.01.2022 18:18 2,4 C 2,2 C 2,2 C 99 % 1026,3 hPa 0,0 l/m 0 min 0 min 0 W/m 12,9 km/h (3 Bft) 97,87 %
15.01.2022 18:20 2,4 C 2,2 C 2,2 C 99 % 1026,3 hPa 0,0 l/m 0 min 0 min 0 W/m 12,9 km/h (3 Bft) 97,87 %
15.01.2022 18:22 2,4 C 2,2 C 2,2 C 99 % 1026,2 hPa 0,0 l/m 0 min 0 min 0 W/m 16,1 km/h (3 Bft) 97,83 %
15.01.2022 18:24 2,4 C 2,2 C 2,2 C 99 % 1026,2 hPa 0,0 l/m 0 min 0 min 0 W/m 12,9 km/h (3 Bft) 95,74 %
15.01.2022 18:26 2,4 C 2,2 C 2,2 C 99 % 1026,2 hPa 0,0 l/m 0 min 0 min 0 W/m 16,1 km/h (3 Bft) 97,87 %
15.01.2022 18:28 2,4 C 2,2 C 2,2 C 99 % 1026,2 hPa 0,0 l/m 0 min 0 min 0 W/m 12,9 km/h (3 Bft) 97,87 %
15.01.2022 18:30 2,4 C 2,2 C 2,2 C 99 % 1026,1 hPa 0,0 l/m 0 min 0 min 0 W/m 9,7 km/h (2 Bft) 97,87 %
15.01.2022 18:32 2,4 C 1,7 C 2,2 C 99 % 1026,1 hPa 0,0 l/m 0 min 0 min 0 W/m 12,9 km/h (3 Bft) 95,74 %
15.01.2022 18:34 2,4 C 2,2 C 2,2 C 99 % 1026,1 hPa 0,0 l/m 0 min 0 min 0 W/m 6,4 km/h (2 Bft) 95,65 %
15.01.2022 18:36 2,4 C 1,7 C 2,2 C 99 % 1026,1 hPa 0,0 l/m 0 min 0 min 0 W/m 12,9 km/h (3 Bft) 95,74 %
15.01.2022 18:38 2,4 C 1,7 C 2,2 C 99 % 1026,1 hPa 0,0 l/m 0 min 0 min 0 W/m 12,9 km/h (3 Bft) 95,74 %
15.01.2022 18:40 2,4 C 1,7 C 2,2 C 99 % 1026,1 hPa 0,0 l/m 0 min 0 min 0 W/m 16,1 km/h (3 Bft) 95,74 %
15.01.2022 18:42 2,3 C 1,7 C 2,2 C 99 % 1026,0 hPa 0,0 l/m 0 min 0 min 0 W/m 9,7 km/h (2 Bft) 93,62 %
15.01.2022 18:44 2,3 C 1,7 C 2,2 C 99 % 1026,0 hPa 0,0 l/m 0 min 0 min 0 W/m 16,1 km/h (3 Bft) 93,62 %
15.01.2022 18:46 2,3 C 1,7 C 2,2 C 99 % 1026,0 hPa 0,0 l/m 0 min 0 min 0 W/m 12,9 km/h (3 Bft) 95,65 %
15.01.2022 18:48 2,3 C 1,7 C 2,2 C 99 % 1026,0 hPa 0,0 l/m 0 min 0 min 0 W/m 16,1 km/h (3 Bft) 97,87 %
15.01.2022 18:50 2,3 C 1,7 C 2,2 C 99 % 1025,9 hPa 0,0 l/m 0 min 0 min 0 W/m 12,9 km/h (3 Bft) 97,87 %
15.01.2022 18:52 2,3 C 1,7 C 2,2 C 99 % 1025,9 hPa 0,0 l/m 0 min 0 min 0 W/m 16,1 km/h (3 Bft) 95,74 %
15.01.2022 18:54 2,3 C 1,7 C 2,2 C 99 % 1025,9 hPa 0,0 l/m 0 min 0 min 0 W/m 16,1 km/h (3 Bft) 97,87 %
15.01.2022 18:56 2,3 C 1,7 C 2,2 C 99 % 1026,0 hPa 0,0 l/m 0 min 0 min 0 W/m 19,3 km/h (3 Bft) 97,83 %
15.01.2022 18:58 2,3 C 1,7 C 2,2 C 99 % 1026,0 hPa 0,0 l/m 0 min 0 min 0 W/m 22,5 km/h (4 Bft) 97,87 %
15.01.2022 19:00 2,3 C 1,7 C 2,2 C 99 % 1026,0 hPa 0,0 l/m 0 min 0 min 0 W/m 16,1 km/h (3 Bft) 93,62 %
15.01.2022 19:02 2,2 C 1,7 C 2,2 C 99 % 1025,9 hPa 0,0 l/m 0 min 0 min 0 W/m 19,3 km/h (3 Bft) 93,62 %
15.01.2022 19:04 2,2 C 1,7 C 2,2 C 99 % 1025,9 hPa 0,0 l/m 0 min 0 min 0 W/m 12,9 km/h (3 Bft) 95,74 %
15.01.2022 19:06 2,2 C 1,7 C 2,2 C 99 % 1025,9 hPa 0,0 l/m 0 min 0 min 0 W/m 19,3 km/h (3 Bft) 93,62 %
15.01.2022 19:08 2,2 C 1,7 C 2,2 C 99 % 1026,0 hPa 0,0 l/m 0 min 0 min 0 W/m 16,1 km/h (3 Bft) 95,65 %
15.01.2022 19:10 2,2 C 1,7 C 2,2 C 99 % 1026,0 hPa 0,0 l/m 0 min 0 min 0 W/m 16,1 km/h (3 Bft) 95,74 %
15.01.2022 19:12 2,2 C 1,7 C 2,2 C 99 % 1026,0 hPa 0,0 l/m 0 min 0 min 0 W/m 19,3 km/h (3 Bft) 93,62 %
15.01.2022 19:14 2,2 C 1,7 C 2,2 C 99 % 1025,9 hPa 0,0 l/m 0 min 0 min 0 W/m 6,4 km/h (2 Bft) 95,74 %
15.01.2022 19:16 2,2 C 1,7 C 2,2 C 99 % 1026,0 hPa 0,0 l/m 0 min 0 min 0 W/m 16,1 km/h (3 Bft) 93,62 %
15.01.2022 19:18 2,2 C 1,7 C 2,2 C 99 % 1026,0 hPa 0,0 l/m 0 min 0 min 0 W/m 16,1 km/h (3 Bft) 95,74 %
15.01.2022 19:20 2,2 C 1,7 C 2,2 C 99 % 1025,9 hPa 0,0 l/m 0 min 0 min 0 W/m 16,1 km/h (3 Bft) 95,65 %
15.01.2022 19:22 2,2 C 1,7 C 2,2 C 99 % 1025,9 hPa 0,0 l/m 0 min 0 min 0 W/m 16,1 km/h (3 Bft) 95,74 %
15.01.2022 19:24 2,2 C 1,7 C 2,2 C 99 % 1025,8 hPa 0,0 l/m 0 min 0 min 0 W/m 16,1 km/h (3 Bft) 97,87 %
15.01.2022 19:26 2,2 C 1,7 C 2,2 C 99 % 1025,8 hPa 0,0 l/m 0 min 0 min 0 W/m 12,9 km/h (3 Bft) 97,87 %
15.01.2022 19:28 2,1 C 1,7 C 2,2 C 99 % 1025,9 hPa 0,0 l/m 0 min 0 min 0 W/m 19,3 km/h (3 Bft) 95,74 %
15.01.2022 19:30 2,1 C 1,7 C 2,2 C 99 % 1025,9 hPa 0,0 l/m 0 min 0 min 0 W/m 19,3 km/h (3 Bft) 93,62 %
15.01.2022 19:32 2,1 C 1,7 C 2,2 C 99 % 1025,8 hPa 0,0 l/m 0 min 0 min 0 W/m 16,1 km/h (3 Bft) 97,83 %
15.01.2022 19:34 2,1 C 1,7 C 2,2 C 99 % 1025,8 hPa 0,0 l/m 0 min 0 min 0 W/m 16,1 km/h (3 Bft) 100,00 %
15.01.2022 19:36 2,1 C 1,7 C 2,2 C 99 % 1025,8 hPa 0,0 l/m 0 min 0 min 0 W/m 19,3 km/h (3 Bft) 100,00 %
15.01.2022 19:38 2,1 C 1,7 C 2,2 C 99 % 1025,8 hPa 0,0 l/m 0 min 0 min 0 W/m 19,3 km/h (3 Bft) 94,59 %
15.01.2022 19:40 2,1 C 1,7 C 2,2 C 99 % 1025,8 hPa 0,0 l/m 0 min 0 min 0 W/m 19,3 km/h (3 Bft) 100,00 %
15.01.2022 19:42 2,1 C 1,7 C 2,2 C 99 % 1025,7 hPa 0,0 l/m 0 min 0 min 0 W/m 16,1 km/h (3 Bft) 100,00 %
15.01.2022 19:44 2,1 C 1,7 C 2,2 C 99 % 1025,7 hPa 0,0 l/m 0 min 0 min 0 W/m 25,7 km/h (4 Bft) 100,00 %
15.01.2022 19:46 2,1 C 1,7 C 2,2 C 99 % 1025,7 hPa 0,0 l/m 0 min 0 min 0 W/m 29,0 km/h (5 Bft) 100,00 %
15.01.2022 19:48 2,0 C 1,7 C 2,2 C 99 % 1025,7 hPa 0,0 l/m 0 min 0 min 0 W/m 19,3 km/h (3 Bft) 100,00 %
15.01.2022 19:50 2,0 C 1,7 C 2,2 C 99 % 1025,7 hPa 0,0 l/m 0 min 0 min 0 W/m 19,3 km/h (3 Bft) 100,00 %
15.01.2022 19:52 2,0 C 1,7 C 2,2 C 99 % 1025,6 hPa 0,0 l/m 0 min 0 min 0 W/m 16,1 km/h (3 Bft) 100,00 %
15.01.2022 19:54 2,0 C 1,7 C 2,2 C 99 % 1025,7 hPa 0,0 l/m 0 min 0 min 0 W/m 22,5 km/h (4 Bft) 100,00 %
15.01.2022 19:56 1,9 C 1,7 C 1,7 C 99 % 1025,7 hPa 0,0 l/m 0 min 0 min 0 W/m 16,1 km/h (3 Bft) 100,00 %
15.01.2022 19:58 1,9 C 1,7 C 1,7 C 99 % 1025,6 hPa 0,0 l/m 0 min 0 min 0 W/m 19,3 km/h (3 Bft) 100,00 %
15.01.2022 20:00 1,9 C 1,7 C 1,7 C 99 % 1025,6 hPa 0,0 l/m 0 min 0 min 0 W/m 16,1 km/h (3 Bft) 97,87 %
15.01.2022 20:02 1,9 C 1,7 C 2,2 C 99 % 1025,6 hPa 0,0 l/m 0 min 0 min 0 W/m 19,3 km/h (3 Bft) 100,00 %
15.01.2022 20:04 1,9 C 1,7 C 1,7 C 99 % 1025,6 hPa 0,0 l/m 0 min 0 min 0 W/m 25,7 km/h (4 Bft) 100,00 %
15.01.2022 20:06 1,9 C 1,1 C 1,7 C 99 % 1025,7 hPa 0,0 l/m 0 min 0 min 0 W/m 22,5 km/h (4 Bft) 97,87 %
15.01.2022 20:08 1,9 C 1,1 C 1,7 C 99 % 1025,8 hPa 0,0 l/m 0 min 0 min 0 W/m 16,1 km/h (3 Bft) 100,00 %
15.01.2022 20:10 1,9 C 1,7 C 1,7 C 99 % 1025,8 hPa 0,0 l/m 0 min 0 min 0 W/m 16,1 km/h (3 Bft) 100,00 %
15.01.2022 20:12 1,9 C 1,1 C 1,7 C 99 % 1026,0 hPa 0,0 l/m 0 min 0 min 0 W/m 25,7 km/h (4 Bft) 100,00 %
15.01.2022 20:14 1,9 C 1,1 C 2,2 C 99 % 1026,2 hPa 0,0 l/m 0 min 0 min 0 W/m 19,3 km/h (3 Bft) 100,00 %
15.01.2022 20:16 1,9 C 1,7 C 1,7 C 99 % 1026,3 hPa 0,0 l/m 0 min 0 min 0 W/m 19,3 km/h (3 Bft) 97,87 %
15.01.2022 20:18 1,9 C 1,7 C 1,7 C 99 % 1026,9 hPa 0,0 l/m 0 min 0 min 0 W/m 12,9 km/h (3 Bft) 100,00 %
15.01.2022 20:20 1,9 C 1,7 C 2,2 C 99 % 1027,0 hPa 0,0 l/m 0 min 0 min 0 W/m 16,1 km/h (3 Bft) 97,87 %
15.01.2022 20:22 1,9 C 1,7 C 2,2 C 99 % 1026,9 hPa 0,0 l/m 0 min 0 min 0 W/m 12,9 km/h (3 Bft) 100,00 %
15.01.2022 20:24 1,9 C 1,7 C 2,2 C 99 % 1026,5 hPa 0,0 l/m 0 min 0 min 0 W/m 6,4 km/h (2 Bft) 100,00 %
15.01.2022 20:26 1,9 C 1,7 C 2,2 C 99 % 1026,8 hPa 0,0 l/m 0 min 0 min 0 W/m 12,9 km/h (3 Bft) 100,00 %
15.01.2022 20:28 1,9 C 1,7 C 2,2 C 99 % 1026,3 hPa 0,0 l/m 0 min 0 min 0 W/m 6,4 km/h (2 Bft) 100,00 %
15.01.2022 20:30 1,9 C 1,7 C 2,2 C 99 % 1026,2 hPa 0,0 l/m 0 min 0 min 0 W/m 16,1 km/h (3 Bft) 97,87 %
15.01.2022 20:32 1,9 C 1,7 C 2,2 C 99 % 1025,8 hPa 0,0 l/m 0 min 0 min 0 W/m 12,9 km/h (3 Bft) 97,87 %
15.01.2022 20:34 1,9 C 1,7 C 2,2 C 99 % 1025,8 hPa 0,0 l/m 0 min 0 min 0 W/m 16,1 km/h (3 Bft) 100,00 %
15.01.2022 20:36 1,9 C 1,1 C 1,7 C 99 % 1025,2 hPa 0,0 l/m 0 min 0 min 0 W/m 22,5 km/h (4 Bft) 95,74 %
15.01.2022 20:38 1,8 C 1,1 C 1,7 C 99 % 1024,5 hPa 0,0 l/m 0 min 0 min 0 W/m 16,1 km/h (3 Bft) 97,83 %
15.01.2022 20:40 1,9 C 1,1 C 1,7 C 99 % 1024,4 hPa 0,0 l/m 0 min 0 min 0 W/m 16,1 km/h (3 Bft) 97,87 %
15.01.2022 20:42 1,8 C 1,1 C 1,7 C 99 % 1024,2 hPa 0,0 l/m 0 min 0 min 0 W/m 19,3 km/h (3 Bft) 97,87 %
15.01.2022 20:44 1,8 C 1,1 C 1,7 C 99 % 1024,2 hPa 0,0 l/m 0 min 0 min 0 W/m 12,9 km/h (3 Bft) 93,62 %
15.01.2022 20:46 1,8 C 1,1 C 1,7 C 99 % 1024,3 hPa 0,0 l/m 0 min 0 min 0 W/m 12,9 km/h (3 Bft) 97,87 %
15.01.2022 20:48 1,8 C 1,1 C 1,7 C 99 % 1024,8 hPa 0,0 l/m 0 min 0 min 0 W/m 16,1 km/h (3 Bft) 97,83 %
15.01.2022 20:50 1,8 C 1,1 C 1,7 C 99 % 1024,6 hPa 0,0 l/m 0 min 0 min 0 W/m 12,9 km/h (3 Bft) 97,87 %
15.01.2022 20:52 1,8 C 1,7 C 1,7 C 99 % 1025,2 hPa 0,0 l/m 0 min 0 min 0 W/m 3,2 km/h (1 Bft) 97,87 %
15.01.2022 20:54 1,8 C 1,1 C 1,7 C 99 % 1025,0 hPa 0,0 l/m 0 min 0 min 0 W/m 12,9 km/h (3 Bft) 93,62 %
15.01.2022 20:56 1,8 C 1,1 C 1,7 C 99 % 1025,1 hPa 0,0 l/m 0 min 0 min 0 W/m 22,5 km/h (4 Bft) 95,74 %
15.01.2022 20:58 1,8 C 1,1 C 1,7 C 99 % 1025,6 hPa 0,0 l/m 0 min 0 min 0 W/m 12,9 km/h (3 Bft) 95,74 %
15.01.2022 21:00 1,8 C 1,1 C 1,7 C 99 % 1025,4 hPa 0,0 l/m 0 min 0 min 0 W/m 9,7 km/h (2 Bft) 95,65 %
15.01.2022 21:02 1,8 C 1,1 C 1,7 C 99 % 1025,5 hPa 0,0 l/m 0 min 0 min 0 W/m 16,1 km/h (3 Bft) 95,74 %
15.01.2022 21:04 1,8 C 1,1 C 1,7 C 99 % 1025,4 hPa 0,0 l/m 0 min 0 min 0 W/m 16,1 km/h (3 Bft) 95,74 %
15.01.2022 21:06 1,8 C 1,1 C 1,7 C 99 % 1025,3 hPa 0,0 l/m 0 min 0 min 0 W/m 19,3 km/h (3 Bft) 95,74 %
15.01.2022 21:08 1,8 C 1,1 C 1,7 C 99 % 1025,1 hPa 0,0 l/m 0 min 0 min 0 W/m 19,3 km/h (3 Bft) 93,62 %
15.01.2022 21:10 1,8 C 1,1 C 1,7 C 99 % 1025,1 hPa 0,0 l/m 0 min 0 min 0 W/m 22,5 km/h (4 Bft) 95,74 %
15.01.2022 21:12 1,8 C 1,1 C 1,7 C 99 % 1024,9 hPa 0,0 l/m 0 min 0 min 0 W/m 25,7 km/h (4 Bft) 95,65 %
15.01.2022 21:14 1,8 C 1,1 C 1,7 C 99 % 1024,5 hPa 0,0 l/m 0 min 0 min 0 W/m 19,3 km/h (3 Bft) 95,74 %
15.01.2022 21:16 1,7 C 1,1 C 1,7 C 99 % 1024,3 hPa 0,0 l/m 0 min 0 min 0 W/m 22,5 km/h (4 Bft) 97,87 %
15.01.2022 21:18 1,7 C 1,1 C 1,7 C 99 % 1024,4 hPa 0,0 l/m 0 min 0 min 0 W/m 16,1 km/h (3 Bft) 97,87 %
15.01.2022 21:20 1,7 C 1,1 C 1,7 C 99 % 1024,6 hPa 0,0 l/m 0 min 0 min 0 W/m 16,1 km/h (3 Bft) 97,87 %
15.01.2022 21:22 1,7 C 1,1 C 1,7 C 99 % 1024,7 hPa 0,0 l/m 0 min 0 min 0 W/m 22,5 km/h (4 Bft) 97,87 %
15.01.2022 21:24 1,7 C 1,1 C 1,7 C 99 % 1024,5 hPa 0,0 l/m 0 min 0 min 0 W/m 16,1 km/h (3 Bft) 97,83 %
15.01.2022 21:26 1,7 C 1,1 C 1,7 C 99 % 1024,4 hPa 0,0 l/m 0 min 0 min 0 W/m 16,1 km/h (3 Bft) 100,00 %
15.01.2022 21:28 1,7 C 1,1 C 1,7 C 99 % 1024,7 hPa 0,0 l/m 0 min 0 min 0 W/m 19,3 km/h (3 Bft) 100,00 %
15.01.2022 21:30 1,7 C 1,1 C 1,7 C 99 % 1025,0 hPa 0,0 l/m 0 min 0 min 0 W/m 16,1 km/h (3 Bft) 100,00 %
15.01.2022 21:32 1,7 C 1,1 C 1,7 C 99 % 1024,8 hPa 0,0 l/m 0 min 0 min 0 W/m 16,1 km/h (3 Bft) 100,00 %
15.01.2022 21:34 1,7 C 1,1 C 1,7 C 99 % 1025,0 hPa 0,0 l/m 0 min 0 min 0 W/m 19,3 km/h (3 Bft) 97,83 %
15.01.2022 21:36 1,7 C 1,1 C 1,7 C 99 % 1024,9 hPa 0,0 l/m 0 min 0 min 0 W/m 16,1 km/h (3 Bft) 97,87 %
15.01.2022 21:38 1,7 C 1,1 C 1,7 C 99 % 1025,0 hPa 0,0 l/m 0 min 0 min 0 W/m 12,9 km/h (3 Bft) 97,87 %
15.01.2022 21:40 1,7 C 1,1 C 1,7 C 99 % 1025,3 hPa 0,0 l/m 0 min 0 min 0 W/m 16,1 km/h (3 Bft) 95,74 %
15.01.2022 21:42 1,7 C 1,1 C 1,7 C 99 % 1025,1 hPa 0,0 l/m 0 min 0 min 0 W/m 12,9 km/h (3 Bft) 97,87 %
15.01.2022 21:44 1,7 C 1,1 C 1,7 C 99 % 1025,0 hPa 0,0 l/m 0 min 0 min 0 W/m 16,1 km/h (3 Bft) 97,87 %
15.01.2022 21:46 1,7 C 1,1 C 1,7 C 99 % 1024,9 hPa 0,0 l/m 0 min 0 min 0 W/m 16,1 km/h (3 Bft) 97,83 %
15.01.2022 21:48 1,7 C 1,1 C 1,7 C 99 % 1025,2 hPa 0,0 l/m 0 min 0 min 0 W/m 16,1 km/h (3 Bft) 97,87 %
15.01.2022 21:50 1,7 C 1,1 C 1,7 C 99 % 1025,1 hPa 0,0 l/m 0 min 0 min 0 W/m 16,1 km/h (3 Bft) 100,00 %
15.01.2022 21:52 1,7 C 1,1 C 1,7 C 99 % 1025,3 hPa 0,0 l/m 0 min 0 min 0 W/m 16,1 km/h (3 Bft) 97,87 %
15.01.2022 21:54 1,7 C 1,1 C 1,7 C 99 % 1025,3 hPa 0,0 l/m 0 min 0 min 0 W/m 12,9 km/h (3 Bft) 97,87 %
15.01.2022 21:56 1,7 C 1,1 C 1,7 C 99 % 1025,2 hPa 0,0 l/m 0 min 0 min 0 W/m 16,1 km/h (3 Bft) 95,74 %
15.01.2022 21:58 1,7 C 1,1 C 1,7 C 99 % 1025,2 hPa 0,0 l/m 0 min 0 min 0 W/m 16,1 km/h (3 Bft) 95,65 %
15.01.2022 22:00 1,7 C 1,1 C 1,7 C 99 % 1025,1 hPa 0,0 l/m 0 min 0 min 0 W/m 19,3 km/h (3 Bft) 97,87 %
15.01.2022 22:02 1,7 C 1,1 C 1,7 C 99 % 1024,9 hPa 0,0 l/m 0 min 0 min 0 W/m 12,9 km/h (3 Bft) 95,74 %
15.01.2022 22:04 1,7 C 1,1 C 1,7 C 99 % 1024,9 hPa 0,0 l/m 0 min 0 min 0 W/m 9,7 km/h (2 Bft) 97,87 %
15.01.2022 22:06 1,7 C 1,1 C 1,7 C 99 % 1024,9 hPa 0,0 l/m 0 min 0 min 0 W/m 16,1 km/h (3 Bft) 97,87 %
15.01.2022 22:08 1,7 C 1,1 C 1,7 C 99 % 1024,9 hPa 0,0 l/m 0 min 0 min 0 W/m 16,1 km/h (3 Bft) 97,87 %
15.01.2022 22:10 1,7 C 1,1 C 1,7 C 99 % 1024,8 hPa 0,0 l/m 0 min 0 min 0 W/m 12,9 km/h (3 Bft) 97,83 %
15.01.2022 22:12 1,7 C 1,1 C 1,7 C 99 % 1024,6 hPa 0,0 l/m 0 min 0 min 0 W/m 22,5 km/h (4 Bft) 95,74 %
15.01.2022 22:14 1,7 C 1,1 C 1,7 C 99 % 1024,8 hPa 0,0 l/m 0 min 0 min 0 W/m 9,7 km/h (2 Bft) 93,62 %
15.01.2022 22:16 1,7 C 1,1 C 1,7 C 99 % 1024,7 hPa 0,0 l/m 0 min 0 min 0 W/m 19,3 km/h (3 Bft) 97,87 %
15.01.2022 22:18 1,7 C 1,1 C 1,7 C 99 % 1024,6 hPa 0,0 l/m 0 min 0 min 0 W/m 19,3 km/h (3 Bft) 97,87 %
15.01.2022 22:20 1,7 C 1,1 C 1,7 C 99 % 1024,8 hPa 0,0 l/m 0 min 0 min 0 W/m 16,1 km/h (3 Bft) 97,87 %
15.01.2022 22:22 1,7 C 1,1 C 1,7 C 99 % 1024,8 hPa 0,0 l/m 0 min 0 min 0 W/m 16,1 km/h (3 Bft) 97,83 %
15.01.2022 22:24 1,7 C 1,1 C 1,7 C 99 % 1024,7 hPa 0,0 l/m 0 min 0 min 0 W/m 12,9 km/h (3 Bft) 95,74 %
15.01.2022 22:26 1,7 C 1,1 C 1,7 C 99 % 1024,7 hPa 0,0 l/m 0 min 0 min 0 W/m 12,9 km/h (3 Bft) 97,87 %
15.01.2022 22:28 1,7 C 1,1 C 1,7 C 99 % 1024,8 hPa 0,0 l/m 0 min 0 min 0 W/m 19,3 km/h (3 Bft) 100,00 %
15.01.2022 22:30 1,7 C 1,1 C 1,7 C 99 % 1024,7 hPa 0,0 l/m 0 min 0 min 0 W/m 19,3 km/h (3 Bft) 97,87 %
15.01.2022 22:32 1,7 C 1,1 C 1,7 C 99 % 1024,8 hPa 0,0 l/m 0 min 0 min 0 W/m 16,1 km/h (3 Bft) 100,00 %
15.01.2022 22:34 1,7 C 1,1 C 1,7 C 99 % 1024,7 hPa 0,0 l/m 0 min 0 min 0 W/m 16,1 km/h (3 Bft) 100,00 %
15.01.2022 22:36 1,7 C 1,1 C 1,7 C 99 % 1024,7 hPa 0,0 l/m 0 min 0 min 0 W/m 9,7 km/h (2 Bft) 100,00 %
15.01.2022 22:38 1,7 C 1,1 C 1,7 C 99 % 1024,7 hPa 0,0 l/m 0 min 0 min 0 W/m 12,9 km/h (3 Bft) 95,74 %
15.01.2022 22:40 1,7 C 1,1 C 1,7 C 99 % 1024,8 hPa 0,0 l/m 0 min 0 min 0 W/m 12,9 km/h (3 Bft) 100,00 %
15.01.2022 22:42 1,7 C 1,1 C 1,7 C 99 % 1024,8 hPa 0,0 l/m 0 min 0 min 0 W/m 9,7 km/h (2 Bft) 100,00 %
15.01.2022 22:44 1,7 C 1,1 C 1,7 C 99 % 1024,8 hPa 0,0 l/m 0 min 0 min 0 W/m 16,1 km/h (3 Bft) 100,00 %
15.01.2022 22:46 1,7 C 1,1 C 1,7 C 99 % 1024,6 hPa 0,0 l/m 0 min 0 min 0 W/m 16,1 km/h (3 Bft) 100,00 %
15.01.2022 22:48 1,7 C 1,1 C 1,7 C 99 % 1024,7 hPa 0,0 l/m 0 min 0 min 0 W/m 16,1 km/h (3 Bft) 100,00 %
15.01.2022 22:50 1,7 C 1,1 C 1,7 C 99 % 1024,7 hPa 0,0 l/m 0 min 0 min 0 W/m 16,1 km/h (3 Bft) 93,62 %
15.01.2022 22:52 1,7 C 1,1 C 1,7 C 99 % 1024,7 hPa 0,0 l/m 0 min 0 min 0 W/m 12,9 km/h (3 Bft) 97,87 %
15.01.2022 22:57 1,7 C 1,1 C 1,7 C 99 % 1024,8 hPa 0,0 l/m 0 min 0 min 0 W/m 16,1 km/h (3 Bft) 97,06 %
15.01.2022 22:58 1,7 C 1,1 C 1,7 C 99 % 1024,8 hPa 0,0 l/m 0 min 0 min 0 W/m 6,4 km/h (2 Bft) 91,30 %
15.01.2022 23:00 1,7 C 1,1 C 1,7 C 99 % 1024,8 hPa 0,0 l/m 0 min 0 min 0 W/m 16,1 km/h (3 Bft) 93,62 %
15.01.2022 23:02 1,7 C 1,1 C 1,7 C 99 % 1024,6 hPa 0,0 l/m 0 min 0 min 0 W/m 9,7 km/h (2 Bft) 95,74 %
15.01.2022 23:04 1,7 C 1,1 C 1,7 C 99 % 1024,6 hPa 0,0 l/m 0 min 0 min 0 W/m 16,1 km/h (3 Bft) 95,74 %
15.01.2022 23:06 1,7 C 1,1 C 1,7 C 99 % 1024,7 hPa 0,0 l/m 0 min 0 min 0 W/m 6,4 km/h (2 Bft) 95,74 %
15.01.2022 23:08 1,7 C 1,1 C 1,7 C 99 % 1024,7 hPa 0,0 l/m 0 min 0 min 0 W/m 16,1 km/h (3 Bft) 95,65 %
15.01.2022 23:10 1,7 C 1,1 C 1,7 C 99 % 1024,7 hPa 0,0 l/m 0 min 0 min 0 W/m 16,1 km/h (3 Bft) 95,74 %
15.01.2022 23:12 1,7 C 1,1 C 1,7 C 99 % 1024,7 hPa 0,0 l/m 0 min 0 min 0 W/m 16,1 km/h (3 Bft) 95,74 %
15.01.2022 23:14 1,7 C 1,1 C 1,7 C 99 % 1024,8 hPa 0,0 l/m 0 min 0 min 0 W/m 16,1 km/h (3 Bft) 95,74 %
15.01.2022 23:16 1,7 C 1,1 C 1,7 C 99 % 1024,8 hPa 0,0 l/m 0 min 0 min 0 W/m 12,9 km/h (3 Bft) 95,74 %
15.01.2022 23:18 1,7 C 1,1 C 1,7 C 99 % 1024,8 hPa 0,0 l/m 0 min 0 min 0 W/m 16,1 km/h (3 Bft) 95,74 %
15.01.2022 23:20 1,7 C 1,1 C 1,7 C 99 % 1024,8 hPa 0,0 l/m 0 min 0 min 0 W/m 12,9 km/h (3 Bft) 95,65 %
15.01.2022 23:22 1,7 C 1,1 C 1,7 C 99 % 1024,7 hPa 0,0 l/m 0 min 0 min 0 W/m 12,9 km/h (3 Bft) 95,74 %
15.01.2022 23:24 1,7 C 1,1 C 1,7 C 99 % 1024,7 hPa 0,0 l/m 0 min 0 min 0 W/m 16,1 km/h (3 Bft) 97,87 %
15.01.2022 23:26 1,7 C 1,1 C 1,7 C 99 % 1024,7 hPa 0,0 l/m 0 min 0 min 0 W/m 16,1 km/h (3 Bft) 97,87 %
15.01.2022 23:28 1,7 C 1,1 C 1,7 C 99 % 1024,7 hPa 0,0 l/m 0 min 0 min 0 W/m 9,7 km/h (2 Bft) 97,87 %
15.01.2022 23:30 1,7 C 1,1 C 1,7 C 99 % 1024,7 hPa 0,0 l/m 0 min 0 min 0 W/m 19,3 km/h (3 Bft) 95,65 %
15.01.2022 23:32 1,8 C 1,1 C 1,7 C 99 % 1024,7 hPa 0,0 l/m 0 min 0 min 0 W/m 19,3 km/h (3 Bft) 98,00 %
15.01.2022 23:34 1,8 C 1,1 C 1,7 C 99 % 1024,5 hPa 0,0 l/m 0 min 0 min 0 W/m 16,1 km/h (3 Bft) 97,87 %
15.01.2022 23:36 1,8 C 1,1 C 1,7 C 99 % 1024,4 hPa 0,0 l/m 0 min 0 min 0 W/m 12,9 km/h (3 Bft) 97,87 %
15.01.2022 23:38 1,8 C 1,1 C 1,7 C 99 % 1024,4 hPa 0,0 l/m 0 min 0 min 0 W/m 16,1 km/h (3 Bft) 97,87 %
15.01.2022 23:40 1,8 C 1,1 C 1,7 C 99 % 1024,4 hPa 0,0 l/m 0 min 0 min 0 W/m 16,1 km/h (3 Bft) 97,87 %
15.01.2022 23:42 1,8 C 1,1 C 1,7 C 99 % 1024,4 hPa 0,0 l/m 0 min 0 min 0 W/m 12,9 km/h (3 Bft) 100,00 %
15.01.2022 23:44 1,8 C 1,1 C 1,7 C 99 % 1024,5 hPa 0,0 l/m 0 min 0 min 0 W/m 12,9 km/h (3 Bft) 97,87 %
15.01.2022 23:46 1,8 C 1,1 C 1,7 C 99 % 1024,6 hPa 0,0 l/m 0 min 0 min 0 W/m 6,4 km/h (2 Bft) 97,87 %
15.01.2022 23:48 1,8 C 1,1 C 1,7 C 99 % 1024,5 hPa 0,0 l/m 0 min 0 min 0 W/m 6,4 km/h (2 Bft) 100,00 %
15.01.2022 23:50 1,8 C 1,1 C 1,7 C 99 % 1024,6 hPa 0,0 l/m 0 min 0 min 0 W/m 6,4 km/h (2 Bft) 100,00 %
15.01.2022 23:52 1,8 C 1,1 C 1,7 C 99 % 1024,5 hPa 0,0 l/m 0 min 0 min 0 W/m 12,9 km/h (3 Bft) 97,83 %
15.01.2022 23:54 1,8 C 1,1 C 1,7 C 99 % 1024,4 hPa 0,0 l/m 0 min 0 min 0 W/m 12,9 km/h (3 Bft) 100,00 %
15.01.2022 23:56 1,8 C 1,1 C 1,7 C 99 % 1024,3 hPa 0,0 l/m 0 min 0 min 0 W/m 12,9 km/h (3 Bft) 97,87 %
15.01.2022 23:58 1,8 C 1,1 C 1,7 C 99 % 1024,3 hPa 0,0 l/m 0 min 0 min 0 W/m 16,1 km/h (3 Bft) 100,00 %
_ Min-Zeit 06:48 06:16 05:36 04:12 20:42 - - - - 00:10 16:38
Minimum _ 0,6 C 0,0 C 1,1 C 99 % 1024,2 hPa - - - - 0,0 km/h (0 Bft) 44,12 %
_ Max-Zeit 15:50 14:06 00:00 00:00 00:00 00:00 00:00 00:00 13:26 19:46 00:04
Maximum _ 2,8 C 2,8 C 2,8 C 100 % 1033,9 hPa 0,0 l/m 0 min 0 min 72 W/m 29,0 km/h
S-SO (5 Bft)
100,00 %
Durchschnitt _ 1,8 C 1,4 C 2,0 C 100 % 1029,0 hPa #0,0 l/m #0 min. #0 min. 39 W/m 12,3 km/h (3 Bft) 97,32 %
© 2022 W. Hausmann